<?xml version='1.0' encoding='UTF-8'?><gpx version="1.1" creator="JPX - https://github.com/jenetics/jpx" xmlns="http://www.topografix.com/GPX/1/1"><trk><trkseg><trkpt lat="43.23180547391171" lon="12.559494901029813"><ele>657.0</ele><time>2026-04-25T12:09:00Z</time></trkpt><trkpt lat="43.231925492809374" lon="12.559514104756627"><ele>657.0</ele><time>2026-04-25T12:09:01Z</time></trkpt><trkpt lat="43.232086991698296" lon="12.559626359104033"><ele>657.0</ele><time>2026-04-25T12:09:02Z</time></trkpt><trkpt lat="43.23228418953703" lon="12.559659224441422"><ele>651.0</ele><time>2026-04-25T12:09:03Z</time></trkpt><trkpt lat="43.23253170885277" lon="12.559676478464315"><ele>645.0</ele><time>2026-04-25T12:09:04Z</time></trkpt><trkpt lat="43.23279327995692" lon="12.559689064582468"><ele>645.0</ele><time>2026-04-25T12:09:05Z</time></trkpt><trkpt lat="43.23302928535857" lon="12.55970151743695"><ele>645.0</ele><time>2026-04-25T12:09:06Z</time></trkpt><trkpt lat="43.23326594041588" lon="12.559715778344536"><ele>645.6666666666666</ele><time>2026-04-25T12:09:07Z</time></trkpt><trkpt lat="43.233476323685494" lon="12.559739162788757"><ele>646.3333333333333</ele><time>2026-04-25T12:09:08Z</time></trkpt><trkpt lat="43.233660458159996" lon="12.559800876998194"><ele>647.0</ele><time>2026-04-25T12:09:09Z</time></trkpt><trkpt lat="43.233838430271824" lon="12.559919904481086"><ele>650.0</ele><time>2026-04-25T12:09:10Z</time></trkpt><trkpt lat="43.23402053776552" lon="12.560069340588162"><ele>653.0</ele><time>2026-04-25T12:09:11Z</time></trkpt><trkpt lat="43.2342010427771" lon="12.560195962651951"><ele>656.0</ele><time>2026-04-25T12:09:12Z</time></trkpt><trkpt lat="43.23437112221324" lon="12.56027365589705"><ele>656.0</ele><time>2026-04-25T12:09:13Z</time></trkpt><trkpt lat="43.2345302544952" lon="12.560334002022417"><ele>656.0</ele><time>2026-04-25T12:09:14Z</time></trkpt><trkpt lat="43.2347371115553" lon="12.560275739839613"><ele>656.0</ele><time>2026-04-25T12:09:15Z</time></trkpt><trkpt lat="43.23493200281038" lon="12.56018631772441"><ele>655.0</ele><time>2026-04-25T12:09:16Z</time></trkpt><trkpt lat="43.235105976485514" lon="12.560112644545745"><ele>654.0</ele><time>2026-04-25T12:09:17Z</time></trkpt><trkpt lat="43.235282123300586" lon="12.560122836475708"><ele>653.0</ele><time>2026-04-25T12:09:18Z</time></trkpt><trkpt lat="43.23545755566435" lon="12.560190565602602"><ele>650.3333333333333</ele><time>2026-04-25T12:09:19Z</time></trkpt><trkpt lat="43.235651273761135" lon="12.560289219723991"><ele>647.6666666666666</ele><time>2026-04-25T12:09:20Z</time></trkpt><trkpt lat="43.23583928104425" lon="12.560386541002584"><ele>645.0</ele><time>2026-04-25T12:09:21Z</time></trkpt><trkpt lat="43.23600340197219" lon="12.560449962748951"><ele>645.0</ele><time>2026-04-25T12:09:22Z</time></trkpt><trkpt lat="43.2361157099155" lon="12.560472468573327"><ele>645.0</ele><time>2026-04-25T12:09:23Z</time></trkpt><trkpt lat="43.23621086753772" lon="12.560474043981753"><ele>645.0</ele><time>2026-04-25T12:09:24Z</time></trkpt><trkpt lat="43.23632982599198" lon="12.560397053455452"><ele>645.0</ele><time>2026-04-25T12:09:25Z</time></trkpt><trkpt lat="43.23640073798254" lon="12.560217555837326"><ele>645.0</ele><time>2026-04-25T12:09:26Z</time></trkpt><trkpt lat="43.236416209104085" lon="12.560018492939154"><ele>645.0</ele><time>2026-04-25T12:09:27Z</time></trkpt><trkpt lat="43.23640656568634" lon="12.559764468270687"><ele>645.0</ele><time>2026-04-25T12:09:28Z</time></trkpt><trkpt lat="43.23643355026812" lon="12.559458125232608"><ele>647.5</ele><time>2026-04-25T12:09:29Z</time></trkpt><trkpt lat="43.2364475939255" lon="12.559121384669028"><ele>650.0</ele><time>2026-04-25T12:09:30Z</time></trkpt><trkpt lat="43.2364657116017" lon="12.558751297770348"><ele>637.5</ele><time>2026-04-25T12:09:31Z</time></trkpt><trkpt lat="43.23648358462967" lon="12.55842175191969"><ele>625.0</ele><time>2026-04-25T12:09:32Z</time></trkpt><trkpt lat="43.23649785889715" lon="12.558119329608704"><ele>625.0</ele><time>2026-04-25T12:09:33Z</time></trkpt><trkpt lat="43.236519336464085" lon="12.557877890212735"><ele>625.0</ele><time>2026-04-25T12:09:34Z</time></trkpt><trkpt lat="43.23655792302556" lon="12.557650670607785"><ele>625.0</ele><time>2026-04-25T12:09:35Z</time></trkpt><trkpt lat="43.23663152752435" lon="12.557448769467277"><ele>625.3333333333334</ele><time>2026-04-25T12:09:36Z</time></trkpt><trkpt lat="43.236741059241524" lon="12.557262923099945"><ele>625.6666666666666</ele><time>2026-04-25T12:09:37Z</time></trkpt><trkpt lat="43.236878614169974" lon="12.557101646157097"><ele>626.0</ele><time>2026-04-25T12:09:38Z</time></trkpt><trkpt lat="43.23703802850024" lon="12.556942146663264"><ele>628.3333333333333</ele><time>2026-04-25T12:09:39Z</time></trkpt><trkpt lat="43.23717844380871" lon="12.55676718425986"><ele>630.6666666666666</ele><time>2026-04-25T12:09:40Z</time></trkpt><trkpt lat="43.23726981725078" lon="12.556548542781012"><ele>633.0</ele><time>2026-04-25T12:09:41Z</time></trkpt><trkpt lat="43.23738554358222" lon="12.556282074496961"><ele>626.3333333333334</ele><time>2026-04-25T12:09:42Z</time></trkpt><trkpt lat="43.23747958845945" lon="12.556020208493782"><ele>619.6666666666667</ele><time>2026-04-25T12:09:43Z</time></trkpt><trkpt lat="43.237562953358704" lon="12.555789313740933"><ele>613.0</ele><time>2026-04-25T12:09:44Z</time></trkpt><trkpt lat="43.237629706143316" lon="12.555595345514105"><ele>613.0</ele><time>2026-04-25T12:09:45Z</time></trkpt><trkpt lat="43.23766036182466" lon="12.555419784936456"><ele>613.0</ele><time>2026-04-25T12:09:46Z</time></trkpt><trkpt lat="43.237655875725686" lon="12.555227055169645"><ele>613.0</ele><time>2026-04-25T12:09:47Z</time></trkpt><trkpt lat="43.237592734824965" lon="12.555020648444973"><ele>613.0</ele><time>2026-04-25T12:09:48Z</time></trkpt><trkpt lat="43.23747406629193" lon="12.554857401984714"><ele>612.8</ele><time>2026-04-25T12:09:49Z</time></trkpt><trkpt lat="43.23736589614027" lon="12.554746300812889"><ele>612.5999999999999</ele><time>2026-04-25T12:09:50Z</time></trkpt><trkpt lat="43.23731428622607" lon="12.554640030199888"><ele>612.4000000000001</ele><time>2026-04-25T12:09:51Z</time></trkpt><trkpt lat="43.237276210959024" lon="12.554542571289515"><ele>612.2</ele><time>2026-04-25T12:09:52Z</time></trkpt><trkpt lat="43.23731478741893" lon="12.554425969212858"><ele>612.0</ele><time>2026-04-25T12:09:53Z</time></trkpt><trkpt lat="43.237383105388844" lon="12.55433188842991"><ele>612.0</ele><time>2026-04-25T12:09:54Z</time></trkpt><trkpt lat="43.237468936133695" lon="12.554262717196591"><ele>612.0</ele><time>2026-04-25T12:09:55Z</time></trkpt><trkpt lat="43.23759043486172" lon="12.554329554182559"><ele>612.0</ele><time>2026-04-25T12:09:56Z</time></trkpt><trkpt lat="43.23769771626782" lon="12.554472126423047"><ele>612.0</ele><time>2026-04-25T12:09:57Z</time></trkpt><trkpt lat="43.237811614219815" lon="12.554642738492527"><ele>612.0</ele><time>2026-04-25T12:09:58Z</time></trkpt><trkpt lat="43.237956127173646" lon="12.55482638938603"><ele>612.0</ele><time>2026-04-25T12:09:59Z</time></trkpt><trkpt lat="43.23812971122435" lon="12.555022714507377"><ele>612.0</ele><time>2026-04-25T12:10:00Z</time></trkpt><trkpt lat="43.23827774900432" lon="12.555190611765356"><ele>608.0</ele><time>2026-04-25T12:10:01Z</time></trkpt><trkpt lat="43.23839691373534" lon="12.555328827184942"><ele>604.0</ele><time>2026-04-25T12:10:02Z</time></trkpt><trkpt lat="43.23850814857047" lon="12.555438460578639"><ele>600.0</ele><time>2026-04-25T12:10:03Z</time></trkpt><trkpt lat="43.23862821748279" lon="12.555502454174908"><ele>596.0</ele><time>2026-04-25T12:10:04Z</time></trkpt><trkpt lat="43.23877300626897" lon="12.555473553462154"><ele>596.0</ele><time>2026-04-25T12:10:05Z</time></trkpt><trkpt lat="43.23894951690169" lon="12.555447821019625"><ele>596.0</ele><time>2026-04-25T12:10:06Z</time></trkpt><trkpt lat="43.23911237744268" lon="12.55543712135261"><ele>596.0</ele><time>2026-04-25T12:10:07Z</time></trkpt><trkpt lat="43.239262979993626" lon="12.555422463133814"><ele>592.0</ele><time>2026-04-25T12:10:08Z</time></trkpt><trkpt lat="43.23942857964111" lon="12.555355377582604"><ele>588.0</ele><time>2026-04-25T12:10:09Z</time></trkpt><trkpt lat="43.239622569204876" lon="12.555254131222977"><ele>584.0</ele><time>2026-04-25T12:10:10Z</time></trkpt><trkpt lat="43.23979630959017" lon="12.555128736001492"><ele>581.3333333333333</ele><time>2026-04-25T12:10:11Z</time></trkpt><trkpt lat="43.23996058463489" lon="12.555042811468835"><ele>578.6666666666666</ele><time>2026-04-25T12:10:12Z</time></trkpt><trkpt lat="43.24013022747967" lon="12.554997941134582"><ele>576.0</ele><time>2026-04-25T12:10:13Z</time></trkpt><trkpt lat="43.24032805332007" lon="12.554998767650776"><ele>576.0</ele><time>2026-04-25T12:10:14Z</time></trkpt><trkpt lat="43.24056072558718" lon="12.555010008483483"><ele>576.0</ele><time>2026-04-25T12:10:15Z</time></trkpt><trkpt lat="43.24081947936983" lon="12.555005356723427"><ele>572.5</ele><time>2026-04-25T12:10:16Z</time></trkpt><trkpt lat="43.24110060030489" lon="12.555023710673213"><ele>569.0</ele><time>2026-04-25T12:10:17Z</time></trkpt><trkpt lat="43.2413998677369" lon="12.555055011622638"><ele>567.0</ele><time>2026-04-25T12:10:18Z</time></trkpt><trkpt lat="43.241707633694325" lon="12.555069106127636"><ele>565.0</ele><time>2026-04-25T12:10:19Z</time></trkpt><trkpt lat="43.2419913665876" lon="12.555052875647613"><ele>565.0</ele><time>2026-04-25T12:10:20Z</time></trkpt><trkpt lat="43.242272248259304" lon="12.555038805457828"><ele>565.0</ele><time>2026-04-25T12:10:21Z</time></trkpt><trkpt lat="43.24256749898258" lon="12.555005667914598"><ele>563.5</ele><time>2026-04-25T12:10:22Z</time></trkpt><trkpt lat="43.242838398581355" lon="12.554959129766225"><ele>562.0</ele><time>2026-04-25T12:10:23Z</time></trkpt><trkpt lat="43.24305165808252" lon="12.554917118513735"><ele>562.6666666666667</ele><time>2026-04-25T12:10:24Z</time></trkpt><trkpt lat="43.24322917762149" lon="12.55489344854538"><ele>563.3333333333334</ele><time>2026-04-25T12:10:25Z</time></trkpt><trkpt lat="43.24339662064952" lon="12.554922328877002"><ele>564.0</ele><time>2026-04-25T12:10:26Z</time></trkpt><trkpt lat="43.24357553726479" lon="12.554968504136264"><ele>564.0</ele><time>2026-04-25T12:10:27Z</time></trkpt><trkpt lat="43.24377244124376" lon="12.555061090187468"><ele>564.0</ele><time>2026-04-25T12:10:28Z</time></trkpt><trkpt lat="43.24399377303358" lon="12.555164276155914"><ele>564.0</ele><time>2026-04-25T12:10:29Z</time></trkpt><trkpt lat="43.24422628271471" lon="12.555286565669192"><ele>568.0</ele><time>2026-04-25T12:10:30Z</time></trkpt><trkpt lat="43.2444552427654" lon="12.555406129608576"><ele>572.0</ele><time>2026-04-25T12:10:31Z</time></trkpt><trkpt lat="43.24465898905989" lon="12.555513733844805"><ele>573.5</ele><time>2026-04-25T12:10:32Z</time></trkpt><trkpt lat="43.24486969063109" lon="12.555596651814467"><ele>575.0</ele><time>2026-04-25T12:10:33Z</time></trkpt><trkpt lat="43.24511462532861" lon="12.555646676968458"><ele>575.0</ele><time>2026-04-25T12:10:34Z</time></trkpt><trkpt lat="43.245381762538045" lon="12.555672961346337"><ele>575.0</ele><time>2026-04-25T12:10:35Z</time></trkpt><trkpt lat="43.245660186863184" lon="12.555697893262492"><ele>578.0</ele><time>2026-04-25T12:10:36Z</time></trkpt><trkpt lat="43.245956149019285" lon="12.55572195813853"><ele>581.0</ele><time>2026-04-25T12:10:37Z</time></trkpt><trkpt lat="43.24626194136969" lon="12.555746658171557"><ele>581.5</ele><time>2026-04-25T12:10:38Z</time></trkpt><trkpt lat="43.246574348758415" lon="12.555771999061692"><ele>582.0</ele><time>2026-04-25T12:10:39Z</time></trkpt><trkpt lat="43.246894182767164" lon="12.555798318137906"><ele>582.0</ele><time>2026-04-25T12:10:40Z</time></trkpt><trkpt lat="43.247218443484854" lon="12.55582500148992"><ele>582.0</ele><time>2026-04-25T12:10:41Z</time></trkpt><trkpt lat="43.2475517871062" lon="12.555852666951516"><ele>582.0</ele><time>2026-04-25T12:10:42Z</time></trkpt><trkpt lat="43.247889025840706" lon="12.555880103917168"><ele>582.0</ele><time>2026-04-25T12:10:43Z</time></trkpt><trkpt lat="43.24823290918629" lon="12.555873160869531"><ele>584.0</ele><time>2026-04-25T12:10:44Z</time></trkpt><trkpt lat="43.24857786688328" lon="12.555902650180682"><ele>586.0</ele><time>2026-04-25T12:10:45Z</time></trkpt><trkpt lat="43.24892328171864" lon="12.555932895910782"><ele>591.5</ele><time>2026-04-25T12:10:46Z</time></trkpt><trkpt lat="43.24923317065246" lon="12.555961325074014"><ele>597.0</ele><time>2026-04-25T12:10:47Z</time></trkpt><trkpt lat="43.2494764745253" lon="12.556009048330809"><ele>597.0</ele><time>2026-04-25T12:10:48Z</time></trkpt><trkpt lat="43.24968421119431" lon="12.556028557355337"><ele>597.0</ele><time>2026-04-25T12:10:49Z</time></trkpt><trkpt lat="43.24988342141139" lon="12.55605973790336"><ele>597.0</ele><time>2026-04-25T12:10:50Z</time></trkpt><trkpt lat="43.250079521106855" lon="12.556131135899564"><ele>598.6666666666666</ele><time>2026-04-25T12:10:51Z</time></trkpt><trkpt lat="43.25027939431174" lon="12.556239300827015"><ele>600.3333333333333</ele><time>2026-04-25T12:10:52Z</time></trkpt><trkpt lat="43.25047228547089" lon="12.556389840051672"><ele>602.0</ele><time>2026-04-25T12:10:53Z</time></trkpt><trkpt lat="43.25066636092762" lon="12.556577571067853"><ele>602.0</ele><time>2026-04-25T12:10:54Z</time></trkpt><trkpt lat="43.25087386592031" lon="12.55679060769215"><ele>602.0</ele><time>2026-04-25T12:10:55Z</time></trkpt><trkpt lat="43.251095542904" lon="12.55700343796441"><ele>599.0</ele><time>2026-04-25T12:10:56Z</time></trkpt><trkpt lat="43.25131699683037" lon="12.55723625750543"><ele>596.0</ele><time>2026-04-25T12:10:57Z</time></trkpt><trkpt lat="43.25152005707288" lon="12.557448595610404"><ele>599.6666666666666</ele><time>2026-04-25T12:10:58Z</time></trkpt><trkpt lat="43.25168225926864" lon="12.557635797126569"><ele>603.3333333333334</ele><time>2026-04-25T12:10:59Z</time></trkpt><trkpt lat="43.251822283301834" lon="12.557854607709356"><ele>607.0</ele><time>2026-04-25T12:11:00Z</time></trkpt><trkpt lat="43.25196005882747" lon="12.55812417150411"><ele>607.0</ele><time>2026-04-25T12:11:01Z</time></trkpt><trkpt lat="43.25211538408182" lon="12.558414787130932"><ele>607.0</ele><time>2026-04-25T12:11:02Z</time></trkpt><trkpt lat="43.25228437733366" lon="12.558731506019651"><ele>611.5</ele><time>2026-04-25T12:11:03Z</time></trkpt><trkpt lat="43.25244900649298" lon="12.559064228779508"><ele>616.0</ele><time>2026-04-25T12:11:04Z</time></trkpt><trkpt lat="43.25259695558703" lon="12.559407553144545"><ele>614.5</ele><time>2026-04-25T12:11:05Z</time></trkpt><trkpt lat="43.25270683276562" lon="12.559720516870561"><ele>613.0</ele><time>2026-04-25T12:11:06Z</time></trkpt><trkpt lat="43.252804930961894" lon="12.55998034664164"><ele>613.0</ele><time>2026-04-25T12:11:07Z</time></trkpt><trkpt lat="43.25287735905153" lon="12.560179660742513"><ele>613.0</ele><time>2026-04-25T12:11:08Z</time></trkpt><trkpt lat="43.25294791198873" lon="12.560344786120876"><ele>613.0</ele><time>2026-04-25T12:11:09Z</time></trkpt><trkpt lat="43.25303091451895" lon="12.560486229609591"><ele>613.0</ele><time>2026-04-25T12:11:10Z</time></trkpt><trkpt lat="43.253141525279176" lon="12.560578369746816"><ele>613.0</ele><time>2026-04-25T12:11:11Z</time></trkpt><trkpt lat="43.25329085527331" lon="12.560600826713092"><ele>613.0</ele><time>2026-04-25T12:11:12Z</time></trkpt><trkpt lat="43.25345156558914" lon="12.560572088615846"><ele>613.0</ele><time>2026-04-25T12:11:13Z</time></trkpt><trkpt lat="43.25365501633305" lon="12.560500590153524"><ele>613.0</ele><time>2026-04-25T12:11:14Z</time></trkpt><trkpt lat="43.25387472805096" lon="12.560456794964526"><ele>613.0</ele><time>2026-04-25T12:11:15Z</time></trkpt><trkpt lat="43.25410384365693" lon="12.560437162681854"><ele>615.5</ele><time>2026-04-25T12:11:16Z</time></trkpt><trkpt lat="43.25435377815209" lon="12.56045393177239"><ele>618.0</ele><time>2026-04-25T12:11:17Z</time></trkpt><trkpt lat="43.254616503982696" lon="12.56047826823352"><ele>619.5</ele><time>2026-04-25T12:11:18Z</time></trkpt><trkpt lat="43.25488509544343" lon="12.560501345871833"><ele>621.0</ele><time>2026-04-25T12:11:19Z</time></trkpt><trkpt lat="43.25513824141284" lon="12.560524848399199"><ele>621.0</ele><time>2026-04-25T12:11:20Z</time></trkpt><trkpt lat="43.255385212534215" lon="12.560538131873889"><ele>621.0</ele><time>2026-04-25T12:11:21Z</time></trkpt><trkpt lat="43.25560588015142" lon="12.560492608315693"><ele>622.0</ele><time>2026-04-25T12:11:22Z</time></trkpt><trkpt lat="43.25581330749707" lon="12.56042355674385"><ele>623.0</ele><time>2026-04-25T12:11:23Z</time></trkpt><trkpt lat="43.25597545100523" lon="12.560390179221162"><ele>624.0</ele><time>2026-04-25T12:11:24Z</time></trkpt><trkpt lat="43.25613153716157" lon="12.560416429710502"><ele>624.0</ele><time>2026-04-25T12:11:25Z</time></trkpt><trkpt lat="43.256289099580755" lon="12.560509357073046"><ele>624.0</ele><time>2026-04-25T12:11:26Z</time></trkpt><trkpt lat="43.25644511473956" lon="12.560672893037792"><ele>624.0</ele><time>2026-04-25T12:11:27Z</time></trkpt><trkpt lat="43.25660197356441" lon="12.56087690819085"><ele>627.0</ele><time>2026-04-25T12:11:28Z</time></trkpt><trkpt lat="43.25676885377575" lon="12.561111447118458"><ele>630.0</ele><time>2026-04-25T12:11:29Z</time></trkpt><trkpt lat="43.25692919053629" lon="12.561363116215485"><ele>630.0</ele><time>2026-04-25T12:11:30Z</time></trkpt><trkpt lat="43.257067135742126" lon="12.56161679808336"><ele>630.0</ele><time>2026-04-25T12:11:31Z</time></trkpt><trkpt lat="43.25717628375351" lon="12.561835519369103"><ele>630.0</ele><time>2026-04-25T12:11:32Z</time></trkpt><trkpt lat="43.25731541084741" lon="12.562023689895707"><ele>632.6666666666666</ele><time>2026-04-25T12:11:33Z</time></trkpt><trkpt lat="43.2574804219002" lon="12.562167085429673"><ele>635.3333333333333</ele><time>2026-04-25T12:11:34Z</time></trkpt><trkpt lat="43.25764004312307" lon="12.562287917088218"><ele>638.0</ele><time>2026-04-25T12:11:35Z</time></trkpt><trkpt lat="43.25780196059316" lon="12.562370081358502"><ele>638.0</ele><time>2026-04-25T12:11:36Z</time></trkpt><trkpt lat="43.257961571868066" lon="12.562440887689542"><ele>638.0</ele><time>2026-04-25T12:11:37Z</time></trkpt><trkpt lat="43.25813147326738" lon="12.562440487572921"><ele>638.0</ele><time>2026-04-25T12:11:38Z</time></trkpt><trkpt lat="43.258297811364805" lon="12.562373843260406"><ele>640.0</ele><time>2026-04-25T12:11:39Z</time></trkpt><trkpt lat="43.25847809263112" lon="12.562264591106493"><ele>642.0</ele><time>2026-04-25T12:11:40Z</time></trkpt><trkpt lat="43.25869123378738" lon="12.56212456431027"><ele>644.0</ele><time>2026-04-25T12:11:41Z</time></trkpt><trkpt lat="43.25889175459793" lon="12.562019692531553"><ele>649.6666666666666</ele><time>2026-04-25T12:11:42Z</time></trkpt><trkpt lat="43.259055827457516" lon="12.561923664827525"><ele>655.3333333333334</ele><time>2026-04-25T12:11:43Z</time></trkpt><trkpt lat="43.25921747142657" lon="12.561843621313345"><ele>661.0</ele><time>2026-04-25T12:11:44Z</time></trkpt><trkpt lat="43.25938734125086" lon="12.56179917936193"><ele>661.0</ele><time>2026-04-25T12:11:45Z</time></trkpt><trkpt lat="43.25954671132034" lon="12.561815818425707"><ele>661.0</ele><time>2026-04-25T12:11:46Z</time></trkpt><trkpt lat="43.25972067950613" lon="12.561888349040512"><ele>661.0</ele><time>2026-04-25T12:11:47Z</time></trkpt><trkpt lat="43.25989895054316" lon="12.562023362212056"><ele>654.0</ele><time>2026-04-25T12:11:48Z</time></trkpt><trkpt lat="43.260079209527234" lon="12.562185443425419"><ele>647.0</ele><time>2026-04-25T12:11:49Z</time></trkpt><trkpt lat="43.260275273027304" lon="12.56236925803366"><ele>647.0</ele><time>2026-04-25T12:11:50Z</time></trkpt><trkpt lat="43.26048005477992" lon="12.562537692743785"><ele>647.0</ele><time>2026-04-25T12:11:51Z</time></trkpt><trkpt lat="43.26066124871425" lon="12.562677629815706"><ele>647.0</ele><time>2026-04-25T12:11:52Z</time></trkpt><trkpt lat="43.26083576855781" lon="12.562808325313098"><ele>649.3333333333333</ele><time>2026-04-25T12:11:53Z</time></trkpt><trkpt lat="43.26101433264413" lon="12.562882167432496"><ele>651.6666666666666</ele><time>2026-04-25T12:11:54Z</time></trkpt><trkpt lat="43.26121256709564" lon="12.56289489949041"><ele>654.0</ele><time>2026-04-25T12:11:55Z</time></trkpt><trkpt lat="43.26142068333717" lon="12.562872496041086"><ele>654.3333333333334</ele><time>2026-04-25T12:11:56Z</time></trkpt><trkpt lat="43.26162320663744" lon="12.562885974443848"><ele>654.6666666666667</ele><time>2026-04-25T12:11:57Z</time></trkpt><trkpt lat="43.261840514959246" lon="12.562956285437096"><ele>655.0</ele><time>2026-04-25T12:11:58Z</time></trkpt><trkpt lat="43.26207303905065" lon="12.563075077970426"><ele>651.5</ele><time>2026-04-25T12:11:59Z</time></trkpt><trkpt lat="43.26232130750401" lon="12.563218860109625"><ele>648.0</ele><time>2026-04-25T12:12:00Z</time></trkpt><trkpt lat="43.26257545469469" lon="12.563385630558166"><ele>648.0</ele><time>2026-04-25T12:12:01Z</time></trkpt><trkpt lat="43.26284663138356" lon="12.563554140886728"><ele>648.0</ele><time>2026-04-25T12:12:02Z</time></trkpt><trkpt lat="43.26312631716403" lon="12.56372602285264"><ele>642.5</ele><time>2026-04-25T12:12:03Z</time></trkpt><trkpt lat="43.263364502208745" lon="12.563875812480985"><ele>637.0</ele><time>2026-04-25T12:12:04Z</time></trkpt><trkpt lat="43.263576308257186" lon="12.56400927633826"><ele>637.0</ele><time>2026-04-25T12:12:05Z</time></trkpt><trkpt lat="43.2637569252042" lon="12.564162371649651"><ele>637.0</ele><time>2026-04-25T12:12:06Z</time></trkpt><trkpt lat="43.26395940574827" lon="12.564241781351036"><ele>637.0</ele><time>2026-04-25T12:12:07Z</time></trkpt><trkpt lat="43.26418499487079" lon="12.564239410185047"><ele>638.5</ele><time>2026-04-25T12:12:08Z</time></trkpt><trkpt lat="43.26443148809546" lon="12.564235579575005"><ele>640.0</ele><time>2026-04-25T12:12:09Z</time></trkpt><trkpt lat="43.26466652297368" lon="12.564213538357935"><ele>641.3333333333334</ele><time>2026-04-25T12:12:10Z</time></trkpt><trkpt lat="43.264879656155976" lon="12.564195792931239"><ele>642.6666666666666</ele><time>2026-04-25T12:12:11Z</time></trkpt><trkpt lat="43.26507764948078" lon="12.564185587383884"><ele>644.0</ele><time>2026-04-25T12:12:12Z</time></trkpt><trkpt lat="43.26525638518077" lon="12.564195640057628"><ele>644.0</ele><time>2026-04-25T12:12:13Z</time></trkpt><trkpt lat="43.26543756267388" lon="12.564259326445873"><ele>644.0</ele><time>2026-04-25T12:12:14Z</time></trkpt><trkpt lat="43.26561280236187" lon="12.564395659625708"><ele>644.0</ele><time>2026-04-25T12:12:15Z</time></trkpt><trkpt lat="43.26581680411657" lon="12.564563985858596"><ele>646.0</ele><time>2026-04-25T12:12:16Z</time></trkpt><trkpt lat="43.2660305736569" lon="12.564770908521389"><ele>648.0</ele><time>2026-04-25T12:12:17Z</time></trkpt><trkpt lat="43.26626177316637" lon="12.56497270766429"><ele>643.0</ele><time>2026-04-25T12:12:18Z</time></trkpt><trkpt lat="43.26646659653466" lon="12.565152166567565"><ele>638.0</ele><time>2026-04-25T12:12:19Z</time></trkpt><trkpt lat="43.26665383241615" lon="12.565312439047553"><ele>640.6666666666666</ele><time>2026-04-25T12:12:20Z</time></trkpt><trkpt lat="43.2668079075052" lon="12.565456380509637"><ele>643.3333333333334</ele><time>2026-04-25T12:12:21Z</time></trkpt><trkpt lat="43.26696952127177" lon="12.565568548197769"><ele>646.0</ele><time>2026-04-25T12:12:22Z</time></trkpt><trkpt lat="43.26714763012709" lon="12.565623859655565"><ele>646.0</ele><time>2026-04-25T12:12:23Z</time></trkpt><trkpt lat="43.267337613884266" lon="12.565624536486846"><ele>646.0</ele><time>2026-04-25T12:12:24Z</time></trkpt><trkpt lat="43.26752198000106" lon="12.5655515444332"><ele>646.0</ele><time>2026-04-25T12:12:25Z</time></trkpt><trkpt lat="43.26771414888719" lon="12.565410935579983"><ele>643.0</ele><time>2026-04-25T12:12:26Z</time></trkpt><trkpt lat="43.26792607889057" lon="12.565241503636898"><ele>640.0</ele><time>2026-04-25T12:12:27Z</time></trkpt><trkpt lat="43.26814873842822" lon="12.565044218088758"><ele>640.0</ele><time>2026-04-25T12:12:28Z</time></trkpt><trkpt lat="43.26838255316048" lon="12.564837047354843"><ele>640.0</ele><time>2026-04-25T12:12:29Z</time></trkpt><trkpt lat="43.26858891868539" lon="12.564654197485448"><ele>641.3333333333334</ele><time>2026-04-25T12:12:30Z</time></trkpt><trkpt lat="43.268766576593364" lon="12.564470150242256"><ele>642.6666666666666</ele><time>2026-04-25T12:12:31Z</time></trkpt><trkpt lat="43.26893083082627" lon="12.564353173855107"><ele>644.0</ele><time>2026-04-25T12:12:32Z</time></trkpt><trkpt lat="43.26907083262385" lon="12.564235903918048"><ele>644.0</ele><time>2026-04-25T12:12:33Z</time></trkpt><trkpt lat="43.269221080106185" lon="12.564133638362936"><ele>644.0</ele><time>2026-04-25T12:12:34Z</time></trkpt><trkpt lat="43.2694101349708" lon="12.564118177721802"><ele>644.0</ele><time>2026-04-25T12:12:35Z</time></trkpt><trkpt lat="43.269619721978394" lon="12.564135591046247"><ele>644.5</ele><time>2026-04-25T12:12:36Z</time></trkpt><trkpt lat="43.269858813734096" lon="12.564177975703103"><ele>645.0</ele><time>2026-04-25T12:12:37Z</time></trkpt><trkpt lat="43.27008523789106" lon="12.564203417264435"><ele>645.0</ele><time>2026-04-25T12:12:38Z</time></trkpt><trkpt lat="43.27024923025086" lon="12.564263884551018"><ele>645.0</ele><time>2026-04-25T12:12:39Z</time></trkpt><trkpt lat="43.27040831214275" lon="12.564304356018093"><ele>645.0</ele><time>2026-04-25T12:12:40Z</time></trkpt><trkpt lat="43.270547188635106" lon="12.564419340678802"><ele>644.6666666666666</ele><time>2026-04-25T12:12:41Z</time></trkpt><trkpt lat="43.27066295412455" lon="12.564600205696212"><ele>644.3333333333333</ele><time>2026-04-25T12:12:42Z</time></trkpt><trkpt lat="43.27075942394329" lon="12.564839024376885"><ele>644.0</ele><time>2026-04-25T12:12:43Z</time></trkpt><trkpt lat="43.27086044913103" lon="12.565104903174994"><ele>648.3333333333333</ele><time>2026-04-25T12:12:44Z</time></trkpt><trkpt lat="43.27098784484941" lon="12.565374238260603"><ele>652.6666666666666</ele><time>2026-04-25T12:12:45Z</time></trkpt><trkpt lat="43.27109905569526" lon="12.565593923145297"><ele>657.0</ele><time>2026-04-25T12:12:46Z</time></trkpt><trkpt lat="43.27120737322541" lon="12.565750562457112"><ele>657.0</ele><time>2026-04-25T12:12:47Z</time></trkpt><trkpt lat="43.27135767307795" lon="12.5658528418839"><ele>657.0</ele><time>2026-04-25T12:12:48Z</time></trkpt><trkpt lat="43.27152553969404" lon="12.565885831758894"><ele>657.0</ele><time>2026-04-25T12:12:49Z</time></trkpt><trkpt lat="43.27171679686707" lon="12.565886876574725"><ele>649.5</ele><time>2026-04-25T12:12:50Z</time></trkpt><trkpt lat="43.27192445734418" lon="12.565772442982682"><ele>642.0</ele><time>2026-04-25T12:12:51Z</time></trkpt><trkpt lat="43.2721546260501" lon="12.565678795216364"><ele>642.0</ele><time>2026-04-25T12:12:52Z</time></trkpt><trkpt lat="43.27237424486079" lon="12.565598566828156"><ele>642.0</ele><time>2026-04-25T12:12:53Z</time></trkpt><trkpt lat="43.27257597039552" lon="12.565538946634232"><ele>642.0</ele><time>2026-04-25T12:12:54Z</time></trkpt><trkpt lat="43.27277402168353" lon="12.56549512136978"><ele>642.0</ele><time>2026-04-25T12:12:55Z</time></trkpt><trkpt lat="43.2729506137043" lon="12.565484597613498"><ele>642.0</ele><time>2026-04-25T12:12:56Z</time></trkpt><trkpt lat="43.27310314797332" lon="12.565464890083033"><ele>642.0</ele><time>2026-04-25T12:12:57Z</time></trkpt><trkpt lat="43.27323878264236" lon="12.56547402099186"><ele>640.6666666666666</ele><time>2026-04-25T12:12:58Z</time></trkpt><trkpt lat="43.27338072388592" lon="12.565507007525122"><ele>639.3333333333333</ele><time>2026-04-25T12:12:59Z</time></trkpt><trkpt lat="43.273526857358334" lon="12.565600521981311"><ele>638.0</ele><time>2026-04-25T12:13:00Z</time></trkpt><trkpt lat="43.27367280767657" lon="12.565739972319124"><ele>638.0</ele><time>2026-04-25T12:13:01Z</time></trkpt><trkpt lat="43.27383470334808" lon="12.565906509530427"><ele>638.0</ele><time>2026-04-25T12:13:02Z</time></trkpt><trkpt lat="43.274015311119385" lon="12.566056090704349"><ele>638.0</ele><time>2026-04-25T12:13:03Z</time></trkpt><trkpt lat="43.27422244034885" lon="12.566202565437186"><ele>631.5</ele><time>2026-04-25T12:13:04Z</time></trkpt><trkpt lat="43.27446710544205" lon="12.566332116737367"><ele>625.0</ele><time>2026-04-25T12:13:05Z</time></trkpt><trkpt lat="43.27469614465407" lon="12.566461519925237"><ele>625.0</ele><time>2026-04-25T12:13:06Z</time></trkpt><trkpt lat="43.274880136338105" lon="12.566564979349993"><ele>625.0</ele><time>2026-04-25T12:13:07Z</time></trkpt><trkpt lat="43.27503890922828" lon="12.566649799339485"><ele>625.0</ele><time>2026-04-25T12:13:08Z</time></trkpt><trkpt lat="43.27521929985818" lon="12.566719676472472"><ele>625.0</ele><time>2026-04-25T12:13:09Z</time></trkpt><trkpt lat="43.27540801379569" lon="12.566739086979188"><ele>625.0</ele><time>2026-04-25T12:13:10Z</time></trkpt><trkpt lat="43.27560334545848" lon="12.566690180398409"><ele>625.0</ele><time>2026-04-25T12:13:11Z</time></trkpt><trkpt lat="43.27579951624652" lon="12.566595234743135"><ele>622.0</ele><time>2026-04-25T12:13:12Z</time></trkpt><trkpt lat="43.27597349045392" lon="12.56650872074852"><ele>619.0</ele><time>2026-04-25T12:13:13Z</time></trkpt><trkpt lat="43.27614587524999" lon="12.566450138293618"><ele>616.0</ele><time>2026-04-25T12:13:14Z</time></trkpt><trkpt lat="43.27631632075185" lon="12.566444987205292"><ele>614.0</ele><time>2026-04-25T12:13:15Z</time></trkpt><trkpt lat="43.276476145425136" lon="12.566464248251856"><ele>612.0</ele><time>2026-04-25T12:13:16Z</time></trkpt><trkpt lat="43.27661631318783" lon="12.56649456325665"><ele>610.0</ele><time>2026-04-25T12:13:17Z</time></trkpt><trkpt lat="43.27675095895557" lon="12.566546035917732"><ele>608.0</ele><time>2026-04-25T12:13:18Z</time></trkpt><trkpt lat="43.27690924868692" lon="12.56662453053536"><ele>608.0</ele><time>2026-04-25T12:13:19Z</time></trkpt><trkpt lat="43.27706282674824" lon="12.566815167180174"><ele>608.0</ele><time>2026-04-25T12:13:20Z</time></trkpt><trkpt lat="43.27724488252387" lon="12.567007773518514"><ele>608.0</ele><time>2026-04-25T12:13:21Z</time></trkpt><trkpt lat="43.277398339904586" lon="12.56719088722888"><ele>604.0</ele><time>2026-04-25T12:13:22Z</time></trkpt><trkpt lat="43.27754410230266" lon="12.56735701962571"><ele>600.0</ele><time>2026-04-25T12:13:23Z</time></trkpt><trkpt lat="43.27769564989243" lon="12.567513256094706"><ele>596.0</ele><time>2026-04-25T12:13:24Z</time></trkpt><trkpt lat="43.277863733727045" lon="12.567687026777417"><ele>596.0</ele><time>2026-04-25T12:13:25Z</time></trkpt><trkpt lat="43.27807539289258" lon="12.56782891880839"><ele>596.0</ele><time>2026-04-25T12:13:26Z</time></trkpt><trkpt lat="43.27828146578553" lon="12.567980363230445"><ele>592.0</ele><time>2026-04-25T12:13:27Z</time></trkpt><trkpt lat="43.27846729023954" lon="12.568108800261834"><ele>588.0</ele><time>2026-04-25T12:13:28Z</time></trkpt><trkpt lat="43.27864715727391" lon="12.56823719230104"><ele>584.0</ele><time>2026-04-25T12:13:29Z</time></trkpt><trkpt lat="43.27882404510182" lon="12.568368431039978"><ele>585.0</ele><time>2026-04-25T12:13:30Z</time></trkpt><trkpt lat="43.27899051675661" lon="12.568493251777678"><ele>586.0</ele><time>2026-04-25T12:13:31Z</time></trkpt><trkpt lat="43.279152353890225" lon="12.568609627677796"><ele>587.0</ele><time>2026-04-25T12:13:32Z</time></trkpt><trkpt lat="43.279280486685046" lon="12.568731633755439"><ele>583.0</ele><time>2026-04-25T12:13:33Z</time></trkpt><trkpt lat="43.27941758962799" lon="12.56882457993837"><ele>579.0</ele><time>2026-04-25T12:13:34Z</time></trkpt><trkpt lat="43.27958070723451" lon="12.568889399720934"><ele>575.0</ele><time>2026-04-25T12:13:35Z</time></trkpt><trkpt lat="43.27978029130085" lon="12.568921256345842"><ele>574.3333333333333</ele><time>2026-04-25T12:13:36Z</time></trkpt><trkpt lat="43.2800125809865" lon="12.568917938618018"><ele>573.6666666666666</ele><time>2026-04-25T12:13:37Z</time></trkpt><trkpt lat="43.28022137820034" lon="12.568917288942513"><ele>573.0</ele><time>2026-04-25T12:13:38Z</time></trkpt><trkpt lat="43.280413534290886" lon="12.568917288949608"><ele>573.0</ele><time>2026-04-25T12:13:39Z</time></trkpt><trkpt lat="43.28058790169528" lon="12.568919504976172"><ele>573.0</ele><time>2026-04-25T12:13:40Z</time></trkpt><trkpt lat="43.28074968387423" lon="12.568939730492279"><ele>573.0</ele><time>2026-04-25T12:13:41Z</time></trkpt><trkpt lat="43.28090118891459" lon="12.569000556087165"><ele>571.0</ele><time>2026-04-25T12:13:42Z</time></trkpt><trkpt lat="43.28104618862233" lon="12.569097893922104"><ele>569.0</ele><time>2026-04-25T12:13:43Z</time></trkpt><trkpt lat="43.2811846603065" lon="12.56924757018147"><ele>567.0</ele><time>2026-04-25T12:13:44Z</time></trkpt><trkpt lat="43.281336620576326" lon="12.5694619596132"><ele>566.3333333333334</ele><time>2026-04-25T12:13:45Z</time></trkpt><trkpt lat="43.281481794139744" lon="12.569678778227585"><ele>565.6666666666667</ele><time>2026-04-25T12:13:46Z</time></trkpt><trkpt lat="43.28161530857468" lon="12.569858953685573"><ele>565.0</ele><time>2026-04-25T12:13:47Z</time></trkpt><trkpt lat="43.28172240171439" lon="12.57004958505027"><ele>565.0</ele><time>2026-04-25T12:13:48Z</time></trkpt><trkpt lat="43.28179741379788" lon="12.57025844978841"><ele>565.0</ele><time>2026-04-25T12:13:49Z</time></trkpt><trkpt lat="43.28184877533628" lon="12.570505692720989"><ele>565.0</ele><time>2026-04-25T12:13:50Z</time></trkpt><trkpt lat="43.28187040478085" lon="12.570753993089918"><ele>563.0</ele><time>2026-04-25T12:13:51Z</time></trkpt><trkpt lat="43.28189723360841" lon="12.570954621029667"><ele>561.0</ele><time>2026-04-25T12:13:52Z</time></trkpt><trkpt lat="43.28199026339586" lon="12.571130112801182"><ele>559.0</ele><time>2026-04-25T12:13:53Z</time></trkpt><trkpt lat="43.28212358749079" lon="12.571309705692446"><ele>562.5</ele><time>2026-04-25T12:13:54Z</time></trkpt><trkpt lat="43.2822835451352" lon="12.57152077790011"><ele>566.0</ele><time>2026-04-25T12:13:55Z</time></trkpt><trkpt lat="43.282463839734056" lon="12.571740298862238"><ele>566.0</ele><time>2026-04-25T12:13:56Z</time></trkpt><trkpt lat="43.28262667229156" lon="12.571928800425527"><ele>566.0</ele><time>2026-04-25T12:13:57Z</time></trkpt><trkpt lat="43.28277706497955" lon="12.572097207076423"><ele>566.0</ele><time>2026-04-25T12:13:58Z</time></trkpt><trkpt lat="43.28292602438833" lon="12.572252005979491"><ele>563.6666666666666</ele><time>2026-04-25T12:13:59Z</time></trkpt><trkpt lat="43.28307235531312" lon="12.572372204523647"><ele>561.3333333333334</ele><time>2026-04-25T12:14:00Z</time></trkpt><trkpt lat="43.283237245858444" lon="12.572447355613312"><ele>559.0</ele><time>2026-04-25T12:14:01Z</time></trkpt><trkpt lat="43.28342288961373" lon="12.572494793776425"><ele>559.0</ele><time>2026-04-25T12:14:02Z</time></trkpt><trkpt lat="43.283649531108615" lon="12.572539996393886"><ele>559.0</ele><time>2026-04-25T12:14:03Z</time></trkpt><trkpt lat="43.28388092634817" lon="12.572584975545983"><ele>556.6666666666667</ele><time>2026-04-25T12:14:04Z</time></trkpt><trkpt lat="43.284097040336526" lon="12.572631959087346"><ele>554.3333333333334</ele><time>2026-04-25T12:14:05Z</time></trkpt><trkpt lat="43.28430460463025" lon="12.57267798770067"><ele>552.0</ele><time>2026-04-25T12:14:06Z</time></trkpt><trkpt lat="43.28450681212645" lon="12.572726547784505"><ele>552.0</ele><time>2026-04-25T12:14:07Z</time></trkpt><trkpt lat="43.28469717157958" lon="12.572780911913869"><ele>552.0</ele><time>2026-04-25T12:14:08Z</time></trkpt><trkpt lat="43.28487496185738" lon="12.572843108403974"><ele>552.0</ele><time>2026-04-25T12:14:09Z</time></trkpt><trkpt lat="43.28504485611131" lon="12.572929200486639"><ele>545.0</ele><time>2026-04-25T12:14:10Z</time></trkpt><trkpt lat="43.2852047970306" lon="12.57302484558558"><ele>538.0</ele><time>2026-04-25T12:14:11Z</time></trkpt><trkpt lat="43.285365571302464" lon="12.573100375396752"><ele>531.0</ele><time>2026-04-25T12:14:12Z</time></trkpt><trkpt lat="43.2854968985676" lon="12.57323816892966"><ele>529.6666666666666</ele><time>2026-04-25T12:14:13Z</time></trkpt><trkpt lat="43.28561543507009" lon="12.573442968256359"><ele>528.3333333333333</ele><time>2026-04-25T12:14:14Z</time></trkpt><trkpt lat="43.28574638233585" lon="12.573704918456258"><ele>527.0</ele><time>2026-04-25T12:14:15Z</time></trkpt><trkpt lat="43.28589682906111" lon="12.573993032064559"><ele>527.0</ele><time>2026-04-25T12:14:16Z</time></trkpt><trkpt lat="43.286059235604306" lon="12.574271579691606"><ele>527.0</ele><time>2026-04-25T12:14:17Z</time></trkpt><trkpt lat="43.28618226677952" lon="12.574495307151638"><ele>524.5</ele><time>2026-04-25T12:14:18Z</time></trkpt><trkpt lat="43.28627749055073" lon="12.57466819001678"><ele>522.0</ele><time>2026-04-25T12:14:19Z</time></trkpt><trkpt lat="43.2863521358535" lon="12.574803591546498"><ele>519.5</ele><time>2026-04-25T12:14:20Z</time></trkpt><trkpt lat="43.2864359904413" lon="12.574918883206044"><ele>517.0</ele><time>2026-04-25T12:14:21Z</time></trkpt><trkpt lat="43.28656833787789" lon="12.57496738061803"><ele>517.0</ele><time>2026-04-25T12:14:22Z</time></trkpt><trkpt lat="43.28671872900268" lon="12.574894372051855"><ele>517.0</ele><time>2026-04-25T12:14:23Z</time></trkpt><trkpt lat="43.28684602133698" lon="12.574792325160596"><ele>517.0</ele><time>2026-04-25T12:14:24Z</time></trkpt><trkpt lat="43.28693561153625" lon="12.574581856504402"><ele>521.3333333333334</ele><time>2026-04-25T12:14:25Z</time></trkpt><trkpt lat="43.28704526617743" lon="12.574390118785796"><ele>525.6666666666666</ele><time>2026-04-25T12:14:26Z</time></trkpt><trkpt lat="43.28714136758367" lon="12.574167745395147"><ele>530.0</ele><time>2026-04-25T12:14:27Z</time></trkpt><trkpt lat="43.28719119719153" lon="12.573936019746867"><ele>530.0</ele><time>2026-04-25T12:14:28Z</time></trkpt><trkpt lat="43.28725507869345" lon="12.573691220211149"><ele>530.0</ele><time>2026-04-25T12:14:29Z</time></trkpt><trkpt lat="43.287283616413724" lon="12.573460423534105"><ele>530.0</ele><time>2026-04-25T12:14:30Z</time></trkpt><trkpt lat="43.28730111596876" lon="12.573268221206863"><ele>525.4</ele><time>2026-04-25T12:14:31Z</time></trkpt><trkpt lat="43.287321751577956" lon="12.573128908365312"><ele>520.8</ele><time>2026-04-25T12:14:32Z</time></trkpt><trkpt lat="43.28736133484831" lon="12.573019997600019"><ele>516.2</ele><time>2026-04-25T12:14:33Z</time></trkpt><trkpt lat="43.28745466665499" lon="12.572934522456041"><ele>511.6</ele><time>2026-04-25T12:14:34Z</time></trkpt><trkpt lat="43.28756881666202" lon="12.572876255573114"><ele>507.0</ele><time>2026-04-25T12:14:35Z</time></trkpt><trkpt lat="43.287723157765434" lon="12.57293060461002"><ele>507.0</ele><time>2026-04-25T12:14:36Z</time></trkpt><trkpt lat="43.28791426478255" lon="12.573003138263385"><ele>507.0</ele><time>2026-04-25T12:14:37Z</time></trkpt><trkpt lat="43.28814422274051" lon="12.573086773251108"><ele>507.0</ele><time>2026-04-25T12:14:38Z</time></trkpt><trkpt lat="43.28840002837507" lon="12.57316796074886"><ele>505.33333333333337</ele><time>2026-04-25T12:14:39Z</time></trkpt><trkpt lat="43.28863788814815" lon="12.573244661236908"><ele>503.6666666666667</ele><time>2026-04-25T12:14:40Z</time></trkpt><trkpt lat="43.288825121472875" lon="12.573310819645112"><ele>502.0</ele><time>2026-04-25T12:14:41Z</time></trkpt><trkpt lat="43.28898966764601" lon="12.573365800467284"><ele>499.0</ele><time>2026-04-25T12:14:42Z</time></trkpt><trkpt lat="43.2891501012764" lon="12.57347031698484"><ele>496.0</ele><time>2026-04-25T12:14:43Z</time></trkpt><trkpt lat="43.28929072907768" lon="12.573633677563084"><ele>493.0</ele><time>2026-04-25T12:14:44Z</time></trkpt><trkpt lat="43.28942333656149" lon="12.573841955008072"><ele>491.0</ele><time>2026-04-25T12:14:45Z</time></trkpt><trkpt lat="43.28952945340928" lon="12.574038604063432"><ele>489.0</ele><time>2026-04-25T12:14:46Z</time></trkpt><trkpt lat="43.289641004627825" lon="12.574221900552478"><ele>487.0</ele><time>2026-04-25T12:14:47Z</time></trkpt><trkpt lat="43.28974750238061" lon="12.57440369021379"><ele>485.0</ele><time>2026-04-25T12:14:48Z</time></trkpt><trkpt lat="43.28984542621054" lon="12.574577461748024"><ele>483.0</ele><time>2026-04-25T12:14:49Z</time></trkpt><trkpt lat="43.28996455057326" lon="12.574739011629656"><ele>481.0</ele><time>2026-04-25T12:14:50Z</time></trkpt><trkpt lat="43.29011677516725" lon="12.574904621946317"><ele>481.0</ele><time>2026-04-25T12:14:51Z</time></trkpt><trkpt lat="43.290321191527525" lon="12.575054436134591"><ele>481.0</ele><time>2026-04-25T12:14:52Z</time></trkpt><trkpt lat="43.29052555141255" lon="12.575200078181972"><ele>478.33333333333337</ele><time>2026-04-25T12:14:53Z</time></trkpt><trkpt lat="43.29070938722747" lon="12.575328720299803"><ele>475.66666666666663</ele><time>2026-04-25T12:14:54Z</time></trkpt><trkpt lat="43.29088665139624" lon="12.575451248195202"><ele>473.0</ele><time>2026-04-25T12:14:55Z</time></trkpt><trkpt lat="43.29106960848092" lon="12.575577711166606"><ele>473.0</ele><time>2026-04-25T12:14:56Z</time></trkpt><trkpt lat="43.29124872974027" lon="12.575704608370566"><ele>473.0</ele><time>2026-04-25T12:14:57Z</time></trkpt><trkpt lat="43.291424120716016" lon="12.575829013637481"><ele>473.0</ele><time>2026-04-25T12:14:58Z</time></trkpt><trkpt lat="43.29160093714288" lon="12.57595926025025"><ele>471.5</ele><time>2026-04-25T12:14:59Z</time></trkpt><trkpt lat="43.29178344883223" lon="12.57610598848471"><ele>470.0</ele><time>2026-04-25T12:15:00Z</time></trkpt><trkpt lat="43.29198617432256" lon="12.576308375346542"><ele>470.0</ele><time>2026-04-25T12:15:01Z</time></trkpt><trkpt lat="43.29217560579966" lon="12.576497801442347"><ele>470.0</ele><time>2026-04-25T12:15:02Z</time></trkpt><trkpt lat="43.292371079569406" lon="12.576663842414565"><ele>463.5</ele><time>2026-04-25T12:15:03Z</time></trkpt><trkpt lat="43.29259062055161" lon="12.576804622044628"><ele>457.0</ele><time>2026-04-25T12:15:04Z</time></trkpt><trkpt lat="43.29280375957458" lon="12.576925081688097"><ele>455.6666666666667</ele><time>2026-04-25T12:15:05Z</time></trkpt><trkpt lat="43.29300555301907" lon="12.577033959731468"><ele>454.33333333333337</ele><time>2026-04-25T12:15:06Z</time></trkpt><trkpt lat="43.2931993829471" lon="12.577128037528288"><ele>453.0</ele><time>2026-04-25T12:15:07Z</time></trkpt><trkpt lat="43.29341270081501" lon="12.57720856649574"><ele>453.0</ele><time>2026-04-25T12:15:08Z</time></trkpt><trkpt lat="43.293614989603675" lon="12.57727124828048"><ele>453.0</ele><time>2026-04-25T12:15:09Z</time></trkpt><trkpt lat="43.29380261910377" lon="12.577322288877982"><ele>453.0</ele><time>2026-04-25T12:15:10Z</time></trkpt><trkpt lat="43.293971419192246" lon="12.577365283552263"><ele>448.5</ele><time>2026-04-25T12:15:11Z</time></trkpt><trkpt lat="43.294119269354056" lon="12.577381738570795"><ele>444.0</ele><time>2026-04-25T12:15:12Z</time></trkpt><trkpt lat="43.29424155296392" lon="12.577433598414762"><ele>439.5</ele><time>2026-04-25T12:15:13Z</time></trkpt><trkpt lat="43.29434813061187" lon="12.577459524308468"><ele>435.0</ele><time>2026-04-25T12:15:14Z</time></trkpt><trkpt lat="43.294433681671165" lon="12.577482614034222"><ele>435.0</ele><time>2026-04-25T12:15:15Z</time></trkpt><trkpt lat="43.29449956291855" lon="12.577505460113368"><ele>435.0</ele><time>2026-04-25T12:15:16Z</time></trkpt><trkpt lat="43.29457331269742" lon="12.577530549897443"><ele>435.0</ele><time>2026-04-25T12:15:18Z</time></trkpt><trkpt lat="43.294650503459934" lon="12.577504567209214"><ele>435.0</ele><time>2026-04-25T12:16:02Z</time></trkpt><trkpt lat="43.294730935061104" lon="12.577509951288238"><ele>435.0</ele><time>2026-04-25T12:16:03Z</time></trkpt><trkpt lat="43.29483772468285" lon="12.577583495675572"><ele>435.0</ele><time>2026-04-25T12:16:04Z</time></trkpt><trkpt lat="43.29498329312179" lon="12.577602470287742"><ele>432.33333333333337</ele><time>2026-04-25T12:16:05Z</time></trkpt><trkpt lat="43.29515602049268" lon="12.577664279539183"><ele>429.6666666666667</ele><time>2026-04-25T12:16:06Z</time></trkpt><trkpt lat="43.29531417534392" lon="12.57771819426431"><ele>427.0</ele><time>2026-04-25T12:16:07Z</time></trkpt><trkpt lat="43.29546129970504" lon="12.57777374978885"><ele>425.33333333333337</ele><time>2026-04-25T12:16:08Z</time></trkpt><trkpt lat="43.29564547935072" lon="12.577860302097248"><ele>423.66666666666663</ele><time>2026-04-25T12:16:09Z</time></trkpt><trkpt lat="43.29584589563907" lon="12.57797593152589"><ele>422.0</ele><time>2026-04-25T12:16:10Z</time></trkpt><trkpt lat="43.2960278201432" lon="12.578091600915545"><ele>422.0</ele><time>2026-04-25T12:16:11Z</time></trkpt><trkpt lat="43.296230448526735" lon="12.57821492366736"><ele>422.0</ele><time>2026-04-25T12:16:12Z</time></trkpt><trkpt lat="43.29644949768464" lon="12.578359175444913"><ele>419.5</ele><time>2026-04-25T12:16:13Z</time></trkpt><trkpt lat="43.29667766939098" lon="12.578514670782813"><ele>417.0</ele><time>2026-04-25T12:16:14Z</time></trkpt><trkpt lat="43.29689201854445" lon="12.578667657666339"><ele>416.5</ele><time>2026-04-25T12:16:15Z</time></trkpt><trkpt lat="43.2971102062617" lon="12.57883089202962"><ele>416.0</ele><time>2026-04-25T12:16:16Z</time></trkpt><trkpt lat="43.297334972923345" lon="12.579000317342118"><ele>416.0</ele><time>2026-04-25T12:16:17Z</time></trkpt><trkpt lat="43.29757081288482" lon="12.579188133160672"><ele>416.0</ele><time>2026-04-25T12:16:18Z</time></trkpt><trkpt lat="43.297832004630955" lon="12.579397370757185"><ele>414.5</ele><time>2026-04-25T12:16:19Z</time></trkpt><trkpt lat="43.298110121277446" lon="12.579612359829898"><ele>413.0</ele><time>2026-04-25T12:16:20Z</time></trkpt><trkpt lat="43.298388438612804" lon="12.579836775618592"><ele>413.0</ele><time>2026-04-25T12:16:21Z</time></trkpt><trkpt lat="43.29867318938558" lon="12.580068562798758"><ele>413.0</ele><time>2026-04-25T12:16:22Z</time></trkpt><trkpt lat="43.29896457349594" lon="12.580306101378529"><ele>413.5</ele><time>2026-04-25T12:16:23Z</time></trkpt><trkpt lat="43.29926181928771" lon="12.580547336357647"><ele>414.0</ele><time>2026-04-25T12:16:24Z</time></trkpt><trkpt lat="43.29956285707932" lon="12.580790049746012"><ele>414.5</ele><time>2026-04-25T12:16:25Z</time></trkpt><trkpt lat="43.299836673120716" lon="12.58101339968675"><ele>415.0</ele><time>2026-04-25T12:16:26Z</time></trkpt><trkpt lat="43.300067140326114" lon="12.581207686241585"><ele>415.0</ele><time>2026-04-25T12:16:27Z</time></trkpt><trkpt lat="43.30028274408134" lon="12.581382159391636"><ele>415.0</ele><time>2026-04-25T12:16:28Z</time></trkpt><trkpt lat="43.30048092086632" lon="12.58155421488953"><ele>416.6666666666667</ele><time>2026-04-25T12:16:29Z</time></trkpt><trkpt lat="43.30066891508153" lon="12.581693010681624"><ele>418.33333333333337</ele><time>2026-04-25T12:16:30Z</time></trkpt><trkpt lat="43.30086057947298" lon="12.581785646895424"><ele>420.0</ele><time>2026-04-25T12:16:31Z</time></trkpt><trkpt lat="43.30106815487167" lon="12.581802266710008"><ele>420.0</ele><time>2026-04-25T12:16:32Z</time></trkpt><trkpt lat="43.301275783665396" lon="12.581740879868564"><ele>420.0</ele><time>2026-04-25T12:16:33Z</time></trkpt><trkpt lat="43.30146902219809" lon="12.581633921913705"><ele>420.0</ele><time>2026-04-25T12:16:34Z</time></trkpt><trkpt lat="43.30164260403106" lon="12.581457832254817"><ele>423.5</ele><time>2026-04-25T12:16:35Z</time></trkpt><trkpt lat="43.301811383628944" lon="12.581236710499194"><ele>427.0</ele><time>2026-04-25T12:16:36Z</time></trkpt><trkpt lat="43.30200962115596" lon="12.58101883512463"><ele>430.0</ele><time>2026-04-25T12:16:37Z</time></trkpt><trkpt lat="43.30220622906333" lon="12.580770113290722"><ele>433.0</ele><time>2026-04-25T12:16:38Z</time></trkpt><trkpt lat="43.30239016617638" lon="12.580510995850243"><ele>435.0</ele><time>2026-04-25T12:16:39Z</time></trkpt><trkpt lat="43.302571545466535" lon="12.580280995165108"><ele>437.0</ele><time>2026-04-25T12:16:40Z</time></trkpt><trkpt lat="43.30275058714375" lon="12.58008529934481"><ele>437.0</ele><time>2026-04-25T12:16:41Z</time></trkpt><trkpt lat="43.30292755159266" lon="12.579892937234929"><ele>437.0</ele><time>2026-04-25T12:16:42Z</time></trkpt><trkpt lat="43.30311487684144" lon="12.579724024381303"><ele>436.0</ele><time>2026-04-25T12:16:43Z</time></trkpt><trkpt lat="43.30328442455407" lon="12.579562957669552"><ele>435.0</ele><time>2026-04-25T12:16:44Z</time></trkpt><trkpt lat="43.3034727820012" lon="12.579467964828174"><ele>434.0</ele><time>2026-04-25T12:16:45Z</time></trkpt><trkpt lat="43.30367198282109" lon="12.5793695052089"><ele>433.5</ele><time>2026-04-25T12:16:46Z</time></trkpt><trkpt lat="43.30389456309479" lon="12.57928070781818"><ele>433.0</ele><time>2026-04-25T12:16:47Z</time></trkpt><trkpt lat="43.3041074844599" lon="12.579206057948827"><ele>431.0</ele><time>2026-04-25T12:16:48Z</time></trkpt><trkpt lat="43.30430706170318" lon="12.579134464267204"><ele>429.0</ele><time>2026-04-25T12:16:49Z</time></trkpt><trkpt lat="43.304495621934876" lon="12.579067082067835"><ele>427.0</ele><time>2026-04-25T12:16:50Z</time></trkpt><trkpt lat="43.30467853003158" lon="12.579001719697182"><ele>426.0</ele><time>2026-04-25T12:16:51Z</time></trkpt><trkpt lat="43.30487447544936" lon="12.578931137537285"><ele>425.0</ele><time>2026-04-25T12:16:52Z</time></trkpt><trkpt lat="43.30508419162334" lon="12.578854399117503"><ele>424.0</ele><time>2026-04-25T12:16:53Z</time></trkpt><trkpt lat="43.305307362419484" lon="12.578747830323296"><ele>424.0</ele><time>2026-04-25T12:16:54Z</time></trkpt><trkpt lat="43.30551939955852" lon="12.578652258064604"><ele>424.0</ele><time>2026-04-25T12:16:55Z</time></trkpt><trkpt lat="43.305718038394936" lon="12.578530283645799"><ele>424.0</ele><time>2026-04-25T12:16:56Z</time></trkpt><trkpt lat="43.30589096909736" lon="12.578398089261336"><ele>423.33333333333337</ele><time>2026-04-25T12:16:57Z</time></trkpt><trkpt lat="43.306055553303175" lon="12.578265220024806"><ele>422.66666666666663</ele><time>2026-04-25T12:16:58Z</time></trkpt><trkpt lat="43.30620760281114" lon="12.578146789653502"><ele>422.0</ele><time>2026-04-25T12:16:59Z</time></trkpt><trkpt lat="43.30634953009387" lon="12.57803734957504"><ele>421.25</ele><time>2026-04-25T12:17:00Z</time></trkpt><trkpt lat="43.30648462900831" lon="12.577932377174516"><ele>420.5</ele><time>2026-04-25T12:17:01Z</time></trkpt><trkpt lat="43.30661162304622" lon="12.577832862680363"><ele>419.75</ele><time>2026-04-25T12:17:02Z</time></trkpt><trkpt lat="43.30672483112174" lon="12.577742539602557"><ele>419.0</ele><time>2026-04-25T12:17:03Z</time></trkpt><trkpt lat="43.30684034445973" lon="12.57765140768933"><ele>418.5</ele><time>2026-04-25T12:17:04Z</time></trkpt><trkpt lat="43.30695460661355" lon="12.577585064910108"><ele>418.0</ele><time>2026-04-25T12:17:05Z</time></trkpt><trkpt lat="43.30706383640345" lon="12.57750169559594"><ele>417.5</ele><time>2026-04-25T12:17:06Z</time></trkpt><trkpt lat="43.307187413598754" lon="12.577407365105795"><ele>417.0</ele><time>2026-04-25T12:17:07Z</time></trkpt><trkpt lat="43.307313801867934" lon="12.57731089181696"><ele>417.0</ele><time>2026-04-25T12:17:08Z</time></trkpt><trkpt lat="43.307433986523094" lon="12.57718507163748"><ele>417.0</ele><time>2026-04-25T12:17:09Z</time></trkpt><trkpt lat="43.307558834379826" lon="12.577079399516897"><ele>417.0</ele><time>2026-04-25T12:17:10Z</time></trkpt><trkpt lat="43.3076662590327" lon="12.576990183972761"><ele>417.0</ele><time>2026-04-25T12:17:11Z</time></trkpt><trkpt lat="43.307752867653655" lon="12.576920616800857"><ele>417.0</ele><time>2026-04-25T12:17:12Z</time></trkpt><trkpt lat="43.30784565254513" lon="12.576849346422598"><ele>417.0</ele><time>2026-04-25T12:17:13Z</time></trkpt><trkpt lat="43.30794220340696" lon="12.576774425865011"><ele>417.0</ele><time>2026-04-25T12:17:14Z</time></trkpt><trkpt lat="43.308040547457594" lon="12.576702880393213"><ele>417.0</ele><time>2026-04-25T12:17:15Z</time></trkpt><trkpt lat="43.30814081305621" lon="12.576623020948329"><ele>417.0</ele><time>2026-04-25T12:17:16Z</time></trkpt><trkpt lat="43.30823942987877" lon="12.576543351891853"><ele>416.25</ele><time>2026-04-25T12:17:17Z</time></trkpt><trkpt lat="43.30834785793056" lon="12.576460283988688"><ele>415.5</ele><time>2026-04-25T12:17:18Z</time></trkpt><trkpt lat="43.30844609440454" lon="12.576383409250752"><ele>414.75</ele><time>2026-04-25T12:17:19Z</time></trkpt><trkpt lat="43.30854841151831" lon="12.57632180202259"><ele>414.0</ele><time>2026-04-25T12:17:20Z</time></trkpt><trkpt lat="43.30865838248948" lon="12.576254614405984"><ele>414.0</ele><time>2026-04-25T12:17:21Z</time></trkpt><trkpt lat="43.3087653238835" lon="12.576211232394819"><ele>414.0</ele><time>2026-04-25T12:17:22Z</time></trkpt><trkpt lat="43.308881290611374" lon="12.57619568885153"><ele>414.0</ele><time>2026-04-25T12:17:23Z</time></trkpt><trkpt lat="43.308999188300696" lon="12.576181240089538"><ele>414.0</ele><time>2026-04-25T12:17:24Z</time></trkpt><trkpt lat="43.30911363474177" lon="12.576183831799744"><ele>413.75</ele><time>2026-04-25T12:17:25Z</time></trkpt><trkpt lat="43.30922596404279" lon="12.57618570550158"><ele>413.5</ele><time>2026-04-25T12:17:26Z</time></trkpt><trkpt lat="43.309339152077065" lon="12.576187459782975"><ele>413.25</ele><time>2026-04-25T12:17:27Z</time></trkpt><trkpt lat="43.309455401965764" lon="12.576184119234583"><ele>413.0</ele><time>2026-04-25T12:17:28Z</time></trkpt><trkpt lat="43.30957416137868" lon="12.57618110156979"><ele>413.0</ele><time>2026-04-25T12:17:29Z</time></trkpt><trkpt lat="43.309687526844314" lon="12.576177768250517"><ele>413.0</ele><time>2026-04-25T12:17:30Z</time></trkpt><trkpt lat="43.30980014776501" lon="12.576176366598592"><ele>413.0</ele><time>2026-04-25T12:17:31Z</time></trkpt><trkpt lat="43.309912286329414" lon="12.576176019200101"><ele>413.0</ele><time>2026-04-25T12:17:32Z</time></trkpt><trkpt lat="43.31002778452143" lon="12.576174267490462"><ele>413.5</ele><time>2026-04-25T12:17:33Z</time></trkpt><trkpt lat="43.310144071959584" lon="12.5761741538455"><ele>414.0</ele><time>2026-04-25T12:17:34Z</time></trkpt><trkpt lat="43.31025756790224" lon="12.576173544060698"><ele>414.5</ele><time>2026-04-25T12:17:35Z</time></trkpt><trkpt lat="43.3103718895562" lon="12.576172509577528"><ele>415.0</ele><time>2026-04-25T12:17:36Z</time></trkpt><trkpt lat="43.31048916345252" lon="12.57617341601052"><ele>415.0</ele><time>2026-04-25T12:17:37Z</time></trkpt><trkpt lat="43.31060320595017" lon="12.57616918793039"><ele>415.0</ele><time>2026-04-25T12:17:38Z</time></trkpt><trkpt lat="43.310712146785555" lon="12.576149363999027"><ele>415.0</ele><time>2026-04-25T12:17:39Z</time></trkpt></trkseg><trkseg><trkpt lat="43.35537124760622" lon="12.572927139215116"><ele>504.0</ele><time>2026-04-25T12:29:52Z</time></trkpt><trkpt lat="43.355429238368394" lon="12.573085571192921"><ele>504.0</ele><time>2026-04-25T12:29:54Z</time></trkpt><trkpt lat="43.35551724480338" lon="12.573224170227773"><ele>504.0</ele><time>2026-04-25T12:29:56Z</time></trkpt><trkpt lat="43.35552370198397" lon="12.573368819528026"><ele>504.0</ele><time>2026-04-25T12:29:57Z</time></trkpt><trkpt lat="43.35557562292741" lon="12.57347658084011"><ele>505.25</ele><time>2026-04-25T12:29:58Z</time></trkpt><trkpt lat="43.355625045739664" lon="12.573573708442833"><ele>506.5</ele><time>2026-04-25T12:29:59Z</time></trkpt><trkpt lat="43.35566544392049" lon="12.573654646666935"><ele>507.75</ele><time>2026-04-25T12:30:00Z</time></trkpt><trkpt lat="43.35570423173205" lon="12.573800634574901"><ele>509.0</ele><time>2026-04-25T12:30:02Z</time></trkpt><trkpt lat="43.355874397275656" lon="12.573925612395566"><ele>509.0</ele><time>2026-04-25T12:30:04Z</time></trkpt><trkpt lat="43.355944307977616" lon="12.573974964536918"><ele>509.0</ele><time>2026-04-25T12:30:05Z</time></trkpt><trkpt lat="43.35602468341274" lon="12.57412577174516"><ele>509.0</ele><time>2026-04-25T12:30:07Z</time></trkpt><trkpt lat="43.35607843358299" lon="12.574270287750364"><ele>509.0</ele><time>2026-04-25T12:30:08Z</time></trkpt><trkpt lat="43.356134245320064" lon="12.57441058497809"><ele>509.0</ele><time>2026-04-25T12:30:09Z</time></trkpt><trkpt lat="43.356182590569695" lon="12.574524306604177"><ele>509.6</ele><time>2026-04-25T12:30:10Z</time></trkpt><trkpt lat="43.356240687136115" lon="12.574660966086261"><ele>510.2</ele><time>2026-04-25T12:30:11Z</time></trkpt><trkpt lat="43.356291787330896" lon="12.574783750513072"><ele>510.80000000000007</ele><time>2026-04-25T12:30:12Z</time></trkpt><trkpt lat="43.356334685450435" lon="12.57489594882715"><ele>511.40000000000003</ele><time>2026-04-25T12:30:13Z</time></trkpt><trkpt lat="43.35637642853294" lon="12.575014210088764"><ele>512.0</ele><time>2026-04-25T12:30:14Z</time></trkpt><trkpt lat="43.35643024591372" lon="12.575129085168184"><ele>513.6</ele><time>2026-04-25T12:30:15Z</time></trkpt><trkpt lat="43.35646493002451" lon="12.575256346234884"><ele>515.2</ele><time>2026-04-25T12:30:16Z</time></trkpt><trkpt lat="43.356484448396856" lon="12.575408812999102"><ele>516.8</ele><time>2026-04-25T12:30:17Z</time></trkpt><trkpt lat="43.3565144145049" lon="12.575556248715253"><ele>518.4</ele><time>2026-04-25T12:30:18Z</time></trkpt><trkpt lat="43.35654156382172" lon="12.57567933841154"><ele>520.0</ele><time>2026-04-25T12:30:19Z</time></trkpt><trkpt lat="43.3565672590357" lon="12.575787927088133"><ele>520.0</ele><time>2026-04-25T12:30:20Z</time></trkpt><trkpt lat="43.35659619043564" lon="12.575895705546328"><ele>520.0</ele><time>2026-04-25T12:30:21Z</time></trkpt><trkpt lat="43.356642961810856" lon="12.576005111055101"><ele>520.0</ele><time>2026-04-25T12:30:22Z</time></trkpt><trkpt lat="43.35671691667639" lon="12.576082373910642"><ele>520.0</ele><time>2026-04-25T12:30:23Z</time></trkpt><trkpt lat="43.35682172689843" lon="12.576122533976486"><ele>520.0</ele><time>2026-04-25T12:30:25Z</time></trkpt><trkpt lat="43.356923913336196" lon="12.57617206031084"><ele>520.6</ele><time>2026-04-25T12:30:26Z</time></trkpt><trkpt lat="43.357023436152716" lon="12.576225155894678"><ele>521.2</ele><time>2026-04-25T12:30:27Z</time></trkpt><trkpt lat="43.357115209973415" lon="12.576275471574538"><ele>521.8</ele><time>2026-04-25T12:30:28Z</time></trkpt><trkpt lat="43.35719652840599" lon="12.57632083588633"><ele>522.4</ele><time>2026-04-25T12:30:29Z</time></trkpt><trkpt lat="43.35728298150489" lon="12.576369279895479"><ele>523.0</ele><time>2026-04-25T12:30:30Z</time></trkpt><trkpt lat="43.35737086110515" lon="12.576419704350641"><ele>523.0</ele><time>2026-04-25T12:30:31Z</time></trkpt><trkpt lat="43.35746534637773" lon="12.576473879156666"><ele>523.0</ele><time>2026-04-25T12:30:32Z</time></trkpt><trkpt lat="43.35756590885212" lon="12.576531538453827"><ele>523.0</ele><time>2026-04-25T12:30:33Z</time></trkpt><trkpt lat="43.357671605182716" lon="12.576569650982979"><ele>523.0</ele><time>2026-04-25T12:30:34Z</time></trkpt><trkpt lat="43.35777038756775" lon="12.576652739872335"><ele>523.0</ele><time>2026-04-25T12:30:35Z</time></trkpt><trkpt lat="43.35786797118031" lon="12.576759981477746"><ele>523.0</ele><time>2026-04-25T12:30:36Z</time></trkpt><trkpt lat="43.35793677192894" lon="12.576909794602749"><ele>523.0</ele><time>2026-04-25T12:30:37Z</time></trkpt><trkpt lat="43.358012398499824" lon="12.577066802142458"><ele>523.0</ele><time>2026-04-25T12:30:38Z</time></trkpt><trkpt lat="43.35809492670992" lon="12.577234215464184"><ele>523.0</ele><time>2026-04-25T12:30:39Z</time></trkpt><trkpt lat="43.35818131069901" lon="12.57740728429343"><ele>524.6666666666667</ele><time>2026-04-25T12:30:40Z</time></trkpt><trkpt lat="43.3582897094996" lon="12.577624459353897"><ele>526.3333333333334</ele><time>2026-04-25T12:30:41Z</time></trkpt><trkpt lat="43.35842673114192" lon="12.577861701854598"><ele>528.0</ele><time>2026-04-25T12:30:42Z</time></trkpt><trkpt lat="43.35854595274723" lon="12.578104661881294"><ele>528.0</ele><time>2026-04-25T12:30:43Z</time></trkpt><trkpt lat="43.35864622712291" lon="12.578308911608842"><ele>528.0</ele><time>2026-04-25T12:30:44Z</time></trkpt><trkpt lat="43.358746538002194" lon="12.578508345020046"><ele>528.0</ele><time>2026-04-25T12:30:45Z</time></trkpt><trkpt lat="43.35883489453612" lon="12.578714351087319"><ele>529.6666666666666</ele><time>2026-04-25T12:30:46Z</time></trkpt><trkpt lat="43.35892337423732" lon="12.578931053469368"><ele>531.3333333333333</ele><time>2026-04-25T12:30:47Z</time></trkpt><trkpt lat="43.35901346780807" lon="12.579163536419374"><ele>533.0</ele><time>2026-04-25T12:30:48Z</time></trkpt><trkpt lat="43.35909026811346" lon="12.579368573021775"><ele>551.0</ele><time>2026-04-25T12:30:49Z</time></trkpt><trkpt lat="43.35917823178475" lon="12.579546619446068"><ele>569.0</ele><time>2026-04-25T12:30:50Z</time></trkpt><trkpt lat="43.35930011490843" lon="12.57968591261797"><ele>587.0</ele><time>2026-04-25T12:30:51Z</time></trkpt><trkpt lat="43.35946085282338" lon="12.579796598979968"><ele>587.0</ele><time>2026-04-25T12:30:52Z</time></trkpt><trkpt lat="43.35964748950304" lon="12.579918949469103"><ele>587.0</ele><time>2026-04-25T12:30:53Z</time></trkpt><trkpt lat="43.359823399059366" lon="12.580014727650456"><ele>587.0</ele><time>2026-04-25T12:30:54Z</time></trkpt><trkpt lat="43.35997037787626" lon="12.580097563468078"><ele>582.3333333333333</ele><time>2026-04-25T12:30:55Z</time></trkpt><trkpt lat="43.36010943269857" lon="12.580188184244124"><ele>577.6666666666666</ele><time>2026-04-25T12:30:56Z</time></trkpt><trkpt lat="43.360230563886034" lon="12.580296979978431"><ele>573.0</ele><time>2026-04-25T12:30:57Z</time></trkpt><trkpt lat="43.36034083713692" lon="12.580449952422603"><ele>573.0</ele><time>2026-04-25T12:30:58Z</time></trkpt><trkpt lat="43.36044005045216" lon="12.580654102694298"><ele>573.0</ele><time>2026-04-25T12:30:59Z</time></trkpt><trkpt lat="43.360533412293115" lon="12.580859972226985"><ele>573.0</ele><time>2026-04-25T12:31:00Z</time></trkpt><trkpt lat="43.36064043622489" lon="12.581010782419849"><ele>572.6666666666666</ele><time>2026-04-25T12:31:01Z</time></trkpt><trkpt lat="43.3607655993847" lon="12.581158018976417"><ele>572.3333333333333</ele><time>2026-04-25T12:31:02Z</time></trkpt><trkpt lat="43.36092276688276" lon="12.581282488027071"><ele>572.0</ele><time>2026-04-25T12:31:03Z</time></trkpt><trkpt lat="43.36109930611742" lon="12.581415061771844"><ele>572.0</ele><time>2026-04-25T12:31:04Z</time></trkpt><trkpt lat="43.36128981323879" lon="12.581558364203469"><ele>572.0</ele><time>2026-04-25T12:31:05Z</time></trkpt><trkpt lat="43.36145975043749" lon="12.581690175527715"><ele>572.0</ele><time>2026-04-25T12:31:06Z</time></trkpt><trkpt lat="43.3616189943999" lon="12.58182240420221"><ele>574.0</ele><time>2026-04-25T12:31:07Z</time></trkpt><trkpt lat="43.361766862526444" lon="12.581973164312311"><ele>576.0</ele><time>2026-04-25T12:31:08Z</time></trkpt><trkpt lat="43.36190221578066" lon="12.582096184877136"><ele>578.0</ele><time>2026-04-25T12:31:09Z</time></trkpt><trkpt lat="43.36200819017427" lon="12.582252729452868"><ele>578.0</ele><time>2026-04-25T12:31:10Z</time></trkpt><trkpt lat="43.362127724496176" lon="12.582394689212975"><ele>578.0</ele><time>2026-04-25T12:31:11Z</time></trkpt><trkpt lat="43.362252862512435" lon="12.582528944377913"><ele>578.0</ele><time>2026-04-25T12:31:12Z</time></trkpt><trkpt lat="43.3623960798534" lon="12.582634160425632"><ele>581.6666666666666</ele><time>2026-04-25T12:31:13Z</time></trkpt><trkpt lat="43.36254386782855" lon="12.582741753842344"><ele>585.3333333333334</ele><time>2026-04-25T12:31:14Z</time></trkpt><trkpt lat="43.36271158971947" lon="12.582849229033751"><ele>589.0</ele><time>2026-04-25T12:31:15Z</time></trkpt><trkpt lat="43.362888073930144" lon="12.58297690385034"><ele>584.0</ele><time>2026-04-25T12:31:16Z</time></trkpt><trkpt lat="43.36305942281801" lon="12.58309223719121"><ele>579.0</ele><time>2026-04-25T12:31:17Z</time></trkpt><trkpt lat="43.36320378872723" lon="12.583186393578053"><ele>574.0</ele><time>2026-04-25T12:31:18Z</time></trkpt><trkpt lat="43.36332729638354" lon="12.583262713471077"><ele>574.0</ele><time>2026-04-25T12:31:19Z</time></trkpt><trkpt lat="43.363464108420914" lon="12.583261747626866"><ele>574.0</ele><time>2026-04-25T12:31:20Z</time></trkpt><trkpt lat="43.36360425247093" lon="12.583226070440361"><ele>574.0</ele><time>2026-04-25T12:31:21Z</time></trkpt><trkpt lat="43.363741074177504" lon="12.583118876686639"><ele>574.0</ele><time>2026-04-25T12:31:22Z</time></trkpt><trkpt lat="43.36387374429311" lon="12.582988670359567"><ele>572.3333333333334</ele><time>2026-04-25T12:31:23Z</time></trkpt><trkpt lat="43.36398830475579" lon="12.582896978973642"><ele>570.6666666666666</ele><time>2026-04-25T12:31:24Z</time></trkpt><trkpt lat="43.36413529289368" lon="12.582843855866244"><ele>569.0</ele><time>2026-04-25T12:31:25Z</time></trkpt><trkpt lat="43.364303954668614" lon="12.582848993082692"><ele>573.6666666666666</ele><time>2026-04-25T12:31:26Z</time></trkpt><trkpt lat="43.3644942472074" lon="12.582875897351295"><ele>578.3333333333334</ele><time>2026-04-25T12:31:27Z</time></trkpt><trkpt lat="43.36466377341285" lon="12.582940270387507"><ele>583.0</ele><time>2026-04-25T12:31:28Z</time></trkpt><trkpt lat="43.36480188774446" lon="12.582945997093677"><ele>582.0</ele><time>2026-04-25T12:31:29Z</time></trkpt><trkpt lat="43.36493743139241" lon="12.58287952167054"><ele>581.0</ele><time>2026-04-25T12:31:30Z</time></trkpt><trkpt lat="43.36510534884918" lon="12.582734720830432"><ele>580.0</ele><time>2026-04-25T12:31:31Z</time></trkpt><trkpt lat="43.365281800139606" lon="12.58264025035428"><ele>580.0</ele><time>2026-04-25T12:31:32Z</time></trkpt><trkpt lat="43.36542430068475" lon="12.582570858227287"><ele>580.0</ele><time>2026-04-25T12:31:33Z</time></trkpt><trkpt lat="43.36556810290825" lon="12.58251273397965"><ele>580.0</ele><time>2026-04-25T12:31:34Z</time></trkpt><trkpt lat="43.36573705165028" lon="12.582558191847925"><ele>582.6666666666667</ele><time>2026-04-25T12:31:35Z</time></trkpt><trkpt lat="43.365897140232526" lon="12.582643237759523"><ele>585.3333333333334</ele><time>2026-04-25T12:31:36Z</time></trkpt><trkpt lat="43.366030109227566" lon="12.582744884639943"><ele>588.0</ele><time>2026-04-25T12:31:37Z</time></trkpt><trkpt lat="43.36616699859309" lon="12.58290596961241"><ele>593.0</ele><time>2026-04-25T12:31:38Z</time></trkpt><trkpt lat="43.366294506926664" lon="12.583066888269297"><ele>598.0</ele><time>2026-04-25T12:31:39Z</time></trkpt><trkpt lat="43.36642953945839" lon="12.58316258727898"><ele>603.0</ele><time>2026-04-25T12:31:40Z</time></trkpt><trkpt lat="43.36658608101546" lon="12.583246094118591"><ele>603.0</ele><time>2026-04-25T12:31:41Z</time></trkpt><trkpt lat="43.36677882566942" lon="12.583278822953353"><ele>603.0</ele><time>2026-04-25T12:31:42Z</time></trkpt><trkpt lat="43.36696384271465" lon="12.583302710010617"><ele>603.0</ele><time>2026-04-25T12:31:43Z</time></trkpt><trkpt lat="43.36713270641774" lon="12.583342268442982"><ele>602.0</ele><time>2026-04-25T12:31:44Z</time></trkpt><trkpt lat="43.36732359065729" lon="12.583371112225452"><ele>601.0</ele><time>2026-04-25T12:31:45Z</time></trkpt><trkpt lat="43.36749608993021" lon="12.583450641771224"><ele>600.0</ele><time>2026-04-25T12:31:46Z</time></trkpt><trkpt lat="43.367631382419795" lon="12.583523248762265"><ele>600.0</ele><time>2026-04-25T12:31:47Z</time></trkpt><trkpt lat="43.36774928395742" lon="12.583618063631485"><ele>600.0</ele><time>2026-04-25T12:31:48Z</time></trkpt><trkpt lat="43.36784274112736" lon="12.583767679615962"><ele>600.0</ele><time>2026-04-25T12:31:49Z</time></trkpt><trkpt lat="43.36792174168363" lon="12.583964108665393"><ele>600.0</ele><time>2026-04-25T12:31:50Z</time></trkpt><trkpt lat="43.36799297609321" lon="12.584219527205564"><ele>607.3333333333334</ele><time>2026-04-25T12:31:51Z</time></trkpt><trkpt lat="43.36806338299368" lon="12.584488068021246"><ele>614.6666666666667</ele><time>2026-04-25T12:31:52Z</time></trkpt><trkpt lat="43.36813758352019" lon="12.584715710416358"><ele>622.0</ele><time>2026-04-25T12:31:53Z</time></trkpt><trkpt lat="43.36817563742747" lon="12.584936210153694"><ele>622.3333333333334</ele><time>2026-04-25T12:31:54Z</time></trkpt><trkpt lat="43.36815174844653" lon="12.5851856630201"><ele>622.6666666666666</ele><time>2026-04-25T12:31:55Z</time></trkpt><trkpt lat="43.36810656347407" lon="12.585463039154027"><ele>623.0</ele><time>2026-04-25T12:31:56Z</time></trkpt><trkpt lat="43.368054425496126" lon="12.585747758527827"><ele>620.3333333333333</ele><time>2026-04-25T12:31:57Z</time></trkpt><trkpt lat="43.367991975673604" lon="12.586031543511025"><ele>617.6666666666666</ele><time>2026-04-25T12:31:58Z</time></trkpt><trkpt lat="43.367899028682906" lon="12.586290356525756"><ele>615.0</ele><time>2026-04-25T12:31:59Z</time></trkpt><trkpt lat="43.36781536490936" lon="12.586517848859662"><ele>615.0</ele><time>2026-04-25T12:32:00Z</time></trkpt><trkpt lat="43.367758681790725" lon="12.586734054004024"><ele>615.0</ele><time>2026-04-25T12:32:01Z</time></trkpt><trkpt lat="43.3677508784913" lon="12.586952410818459"><ele>615.0</ele><time>2026-04-25T12:32:02Z</time></trkpt><trkpt lat="43.367789033348565" lon="12.587174030873637"><ele>613.6666666666666</ele><time>2026-04-25T12:32:03Z</time></trkpt><trkpt lat="43.36786896937065" lon="12.587373332989344"><ele>612.3333333333333</ele><time>2026-04-25T12:32:04Z</time></trkpt><trkpt lat="43.367991144737154" lon="12.587521727185567"><ele>611.0</ele><time>2026-04-25T12:32:05Z</time></trkpt><trkpt lat="43.36813920324177" lon="12.587650381527492"><ele>611.0</ele><time>2026-04-25T12:32:06Z</time></trkpt><trkpt lat="43.36831758812619" lon="12.587807912200121"><ele>611.0</ele><time>2026-04-25T12:32:07Z</time></trkpt><trkpt lat="43.36848979744655" lon="12.58795768800488"><ele>611.0</ele><time>2026-04-25T12:32:08Z</time></trkpt><trkpt lat="43.36863695260613" lon="12.588085670856772"><ele>613.0</ele><time>2026-04-25T12:32:09Z</time></trkpt><trkpt lat="43.36877361594863" lon="12.58820452882753"><ele>615.0</ele><time>2026-04-25T12:32:10Z</time></trkpt><trkpt lat="43.36891071345552" lon="12.588315752471901"><ele>617.0</ele><time>2026-04-25T12:32:11Z</time></trkpt><trkpt lat="43.36921022398753" lon="12.588081161001211"><ele>617.0</ele><time>2026-04-25T12:32:12Z</time></trkpt><trkpt lat="43.369374262182475" lon="12.588071601620616"><ele>617.0</ele><time>2026-04-25T12:32:13Z</time></trkpt><trkpt lat="43.36952997812039" lon="12.588115881346532"><ele>617.0</ele><time>2026-04-25T12:32:14Z</time></trkpt><trkpt lat="43.36966567392937" lon="12.58821681731447"><ele>616.6666666666666</ele><time>2026-04-25T12:32:15Z</time></trkpt><trkpt lat="43.369783278786976" lon="12.588375728064722"><ele>616.3333333333334</ele><time>2026-04-25T12:32:16Z</time></trkpt><trkpt lat="43.369884160073894" lon="12.588567858296008"><ele>616.0</ele><time>2026-04-25T12:32:17Z</time></trkpt><trkpt lat="43.36998902390205" lon="12.58874486278504"><ele>623.6666666666667</ele><time>2026-04-25T12:32:18Z</time></trkpt><trkpt lat="43.37012435279489" lon="12.588879936947002"><ele>631.3333333333334</ele><time>2026-04-25T12:32:19Z</time></trkpt><trkpt lat="43.37030507851588" lon="12.58899219186024"><ele>639.0</ele><time>2026-04-25T12:32:20Z</time></trkpt><trkpt lat="43.37048406444705" lon="12.589095743032335"><ele>634.6666666666666</ele><time>2026-04-25T12:32:21Z</time></trkpt><trkpt lat="43.37065958760687" lon="12.589159844491517"><ele>630.3333333333333</ele><time>2026-04-25T12:32:22Z</time></trkpt><trkpt lat="43.370850407423" lon="12.589171129863615"><ele>626.0</ele><time>2026-04-25T12:32:23Z</time></trkpt><trkpt lat="43.37104281705807" lon="12.589154223393775"><ele>626.0</ele><time>2026-04-25T12:32:24Z</time></trkpt><trkpt lat="43.37121056923679" lon="12.589125046448128"><ele>626.0</ele><time>2026-04-25T12:32:25Z</time></trkpt><trkpt lat="43.37135962281617" lon="12.58918806911954"><ele>626.0</ele><time>2026-04-25T12:32:26Z</time></trkpt><trkpt lat="43.37151428848275" lon="12.589331624116618"><ele>625.0</ele><time>2026-04-25T12:32:27Z</time></trkpt><trkpt lat="43.3716642687771" lon="12.589486570892396"><ele>624.0</ele><time>2026-04-25T12:32:28Z</time></trkpt><trkpt lat="43.37184100837248" lon="12.589632793630892"><ele>623.0</ele><time>2026-04-25T12:32:29Z</time></trkpt><trkpt lat="43.372044764632214" lon="12.589815664518412"><ele>625.0</ele><time>2026-04-25T12:32:30Z</time></trkpt><trkpt lat="43.37223214324073" lon="12.589974319393278"><ele>627.0</ele><time>2026-04-25T12:32:31Z</time></trkpt><trkpt lat="43.37239756156288" lon="12.590096082172552"><ele>629.0</ele><time>2026-04-25T12:32:32Z</time></trkpt><trkpt lat="43.37260156229027" lon="12.590149735511796"><ele>629.0</ele><time>2026-04-25T12:32:33Z</time></trkpt><trkpt lat="43.37279769070659" lon="12.590185682870858"><ele>629.0</ele><time>2026-04-25T12:32:34Z</time></trkpt><trkpt lat="43.37293279091158" lon="12.5901754354014"><ele>629.0</ele><time>2026-04-25T12:32:35Z</time></trkpt><trkpt lat="43.373031438027205" lon="12.590180829293411"><ele>629.0</ele><time>2026-04-25T12:32:36Z</time></trkpt><trkpt lat="43.37310745909614" lon="12.590249375394189"><ele>632.2</ele><time>2026-04-25T12:32:37Z</time></trkpt><trkpt lat="43.37315495848673" lon="12.590386154410393"><ele>635.4</ele><time>2026-04-25T12:32:38Z</time></trkpt><trkpt lat="43.37313132931382" lon="12.590515740855885"><ele>638.6</ele><time>2026-04-25T12:32:39Z</time></trkpt><trkpt lat="43.373065626922774" lon="12.590621494530625"><ele>641.8</ele><time>2026-04-25T12:32:40Z</time></trkpt><trkpt lat="43.372955231716034" lon="12.590664267432423"><ele>645.0</ele><time>2026-04-25T12:32:41Z</time></trkpt><trkpt lat="43.37281555447721" lon="12.59060871124133"><ele>645.0</ele><time>2026-04-25T12:32:42Z</time></trkpt><trkpt lat="43.37266796488383" lon="12.590551988337474"><ele>645.0</ele><time>2026-04-25T12:32:43Z</time></trkpt><trkpt lat="43.37249743840858" lon="12.590516948224598"><ele>645.0</ele><time>2026-04-25T12:32:44Z</time></trkpt><trkpt lat="43.37237352286139" lon="12.590510950948152"><ele>645.0</ele><time>2026-04-25T12:32:45Z</time></trkpt><trkpt lat="43.37227775976837" lon="12.59058015146234"><ele>645.0</ele><time>2026-04-25T12:32:46Z</time></trkpt><trkpt lat="43.37221115138166" lon="12.590698278580177"><ele>645.0</ele><time>2026-04-25T12:32:47Z</time></trkpt><trkpt lat="43.37214938110277" lon="12.590867921350402"><ele>645.0</ele><time>2026-04-25T12:32:48Z</time></trkpt><trkpt lat="43.372125564303396" lon="12.591112853639808"><ele>645.3333333333334</ele><time>2026-04-25T12:32:49Z</time></trkpt><trkpt lat="43.372093471564135" lon="12.59136933311463"><ele>645.6666666666667</ele><time>2026-04-25T12:32:50Z</time></trkpt><trkpt lat="43.372075614672795" lon="12.591656041442077"><ele>646.0</ele><time>2026-04-25T12:32:51Z</time></trkpt><trkpt lat="43.37209512059352" lon="12.59194318285572"><ele>646.6666666666667</ele><time>2026-04-25T12:32:52Z</time></trkpt><trkpt lat="43.37208162262055" lon="12.592197356053466"><ele>647.3333333333334</ele><time>2026-04-25T12:32:53Z</time></trkpt><trkpt lat="43.37204669594753" lon="12.59241642724435"><ele>648.0</ele><time>2026-04-25T12:32:54Z</time></trkpt><trkpt lat="43.372024165825984" lon="12.592585027442922"><ele>648.0</ele><time>2026-04-25T12:32:55Z</time></trkpt><trkpt lat="43.3720384095218" lon="12.592717622454968"><ele>648.0</ele><time>2026-04-25T12:32:56Z</time></trkpt><trkpt lat="43.3721045179836" lon="12.592863926346668"><ele>648.0</ele><time>2026-04-25T12:32:57Z</time></trkpt><trkpt lat="43.37220310764634" lon="12.593017655653757"><ele>648.0</ele><time>2026-04-25T12:32:58Z</time></trkpt><trkpt lat="43.37234470826946" lon="12.593163813175444"><ele>655.75</ele><time>2026-04-25T12:32:59Z</time></trkpt><trkpt lat="43.37243443035133" lon="12.593294881877755"><ele>663.5</ele><time>2026-04-25T12:33:00Z</time></trkpt><trkpt lat="43.37245403325672" lon="12.593486059280151"><ele>671.25</ele><time>2026-04-25T12:33:01Z</time></trkpt><trkpt lat="43.372443810302315" lon="12.593709502519118"><ele>679.0</ele><time>2026-04-25T12:33:02Z</time></trkpt><trkpt lat="43.372388271117714" lon="12.59395678901346"><ele>679.0</ele><time>2026-04-25T12:33:03Z</time></trkpt><trkpt lat="43.372348408997745" lon="12.59416807768642"><ele>679.0</ele><time>2026-04-25T12:33:04Z</time></trkpt><trkpt lat="43.3723397815033" lon="12.594367733015334"><ele>679.0</ele><time>2026-04-25T12:33:05Z</time></trkpt><trkpt lat="43.37238464980315" lon="12.594567259692493"><ele>680.0</ele><time>2026-04-25T12:33:06Z</time></trkpt><trkpt lat="43.372471189444596" lon="12.594775007976645"><ele>681.0</ele><time>2026-04-25T12:33:07Z</time></trkpt><trkpt lat="43.372591548216995" lon="12.59501803664184"><ele>682.0</ele><time>2026-04-25T12:33:08Z</time></trkpt><trkpt lat="43.372682918764305" lon="12.595275369562946"><ele>683.6666666666667</ele><time>2026-04-25T12:33:09Z</time></trkpt><trkpt lat="43.372768530591415" lon="12.595481946195477"><ele>685.3333333333334</ele><time>2026-04-25T12:33:10Z</time></trkpt><trkpt lat="43.3728972444136" lon="12.595632944660878"><ele>687.0</ele><time>2026-04-25T12:33:11Z</time></trkpt><trkpt lat="43.37306955208166" lon="12.595793431876238"><ele>690.5</ele><time>2026-04-25T12:33:12Z</time></trkpt><trkpt lat="43.3732310043649" lon="12.596024662317689"><ele>694.0</ele><time>2026-04-25T12:33:13Z</time></trkpt><trkpt lat="43.373356460952074" lon="12.596300138704716"><ele>694.0</ele><time>2026-04-25T12:33:14Z</time></trkpt><trkpt lat="43.37349913613686" lon="12.59659174162398"><ele>694.0</ele><time>2026-04-25T12:33:15Z</time></trkpt><trkpt lat="43.373652374222125" lon="12.596895058733482"><ele>698.0</ele><time>2026-04-25T12:33:16Z</time></trkpt><trkpt lat="43.37381326978907" lon="12.597210013487764"><ele>702.0</ele><time>2026-04-25T12:33:17Z</time></trkpt><trkpt lat="43.373966516988474" lon="12.597515171543527"><ele>702.5</ele><time>2026-04-25T12:33:18Z</time></trkpt><trkpt lat="43.37410112628349" lon="12.597830655622305"><ele>703.0</ele><time>2026-04-25T12:33:19Z</time></trkpt><trkpt lat="43.3742199726389" lon="12.598138445150523"><ele>703.0</ele><time>2026-04-25T12:33:20Z</time></trkpt><trkpt lat="43.374313923503884" lon="12.598406276659432"><ele>703.0</ele><time>2026-04-25T12:33:21Z</time></trkpt><trkpt lat="43.374410912111614" lon="12.598655129393288"><ele>703.0</ele><time>2026-04-25T12:33:22Z</time></trkpt><trkpt lat="43.37454362259133" lon="12.598900997647243"><ele>712.0</ele><time>2026-04-25T12:33:23Z</time></trkpt><trkpt lat="43.37471014462604" lon="12.599138103456202"><ele>721.0</ele><time>2026-04-25T12:33:24Z</time></trkpt><trkpt lat="43.374879623103034" lon="12.599372556795373"><ele>718.5</ele><time>2026-04-25T12:33:25Z</time></trkpt><trkpt lat="43.37501565158557" lon="12.599651910540027"><ele>716.0</ele><time>2026-04-25T12:33:26Z</time></trkpt><trkpt lat="43.375146196504616" lon="12.59991127673486"><ele>716.0</ele><time>2026-04-25T12:33:27Z</time></trkpt><trkpt lat="43.375310415738916" lon="12.60013079007564"><ele>716.0</ele><time>2026-04-25T12:33:28Z</time></trkpt><trkpt lat="43.37551951886055" lon="12.600320474304016"><ele>719.0</ele><time>2026-04-25T12:33:29Z</time></trkpt><trkpt lat="43.375671317341165" lon="12.600513151343568"><ele>722.0</ele><time>2026-04-25T12:33:30Z</time></trkpt><trkpt lat="43.375822011492644" lon="12.600767473068053"><ele>725.0</ele><time>2026-04-25T12:33:31Z</time></trkpt><trkpt lat="43.375942433225404" lon="12.601013158467483"><ele>727.0</ele><time>2026-04-25T12:33:32Z</time></trkpt><trkpt lat="43.376037472952596" lon="12.601218287421272"><ele>729.0</ele><time>2026-04-25T12:33:33Z</time></trkpt><trkpt lat="43.376097916521886" lon="12.601423184483059"><ele>731.0</ele><time>2026-04-25T12:33:34Z</time></trkpt><trkpt lat="43.37611678108383" lon="12.601608917949585"><ele>731.0</ele><time>2026-04-25T12:33:35Z</time></trkpt><trkpt lat="43.37609287748406" lon="12.60180093176507"><ele>731.0</ele><time>2026-04-25T12:33:36Z</time></trkpt><trkpt lat="43.37601306325907" lon="12.60199402848353"><ele>731.0</ele><time>2026-04-25T12:33:37Z</time></trkpt><trkpt lat="43.37593655596624" lon="12.60213987091209"><ele>731.0</ele><time>2026-04-25T12:33:38Z</time></trkpt><trkpt lat="43.375916844604234" lon="12.602247166881943"><ele>733.25</ele><time>2026-04-25T12:33:39Z</time></trkpt><trkpt lat="43.37598599134496" lon="12.602379479507107"><ele>735.5</ele><time>2026-04-25T12:33:40Z</time></trkpt><trkpt lat="43.37610304160551" lon="12.602453315765546"><ele>737.75</ele><time>2026-04-25T12:33:41Z</time></trkpt><trkpt lat="43.37623888105252" lon="12.602449098616717"><ele>740.0</ele><time>2026-04-25T12:33:42Z</time></trkpt><trkpt lat="43.376394041826025" lon="12.602406104885084"><ele>740.2</ele><time>2026-04-25T12:33:43Z</time></trkpt><trkpt lat="43.37652725937579" lon="12.602382013507212"><ele>740.4</ele><time>2026-04-25T12:33:44Z</time></trkpt><trkpt lat="43.3766449608945" lon="12.602356913194729"><ele>740.5999999999999</ele><time>2026-04-25T12:33:45Z</time></trkpt><trkpt lat="43.376742593210466" lon="12.602384176312249"><ele>740.8</ele><time>2026-04-25T12:33:46Z</time></trkpt><trkpt lat="43.376813747941654" lon="12.602465936938282"><ele>741.0</ele><time>2026-04-25T12:33:47Z</time></trkpt><trkpt lat="43.37684922866963" lon="12.602601646550353"><ele>741.0</ele><time>2026-04-25T12:33:48Z</time></trkpt><trkpt lat="43.376836691189155" lon="12.602749523338248"><ele>741.0</ele><time>2026-04-25T12:33:49Z</time></trkpt><trkpt lat="43.37676400518399" lon="12.602864175579615"><ele>741.0</ele><time>2026-04-25T12:33:50Z</time></trkpt><trkpt lat="43.376639277931595" lon="12.602930482624684"><ele>741.0</ele><time>2026-04-25T12:33:51Z</time></trkpt><trkpt lat="43.3764891779056" lon="12.602995179015533"><ele>743.75</ele><time>2026-04-25T12:33:52Z</time></trkpt><trkpt lat="43.37631377810995" lon="12.603089414684423"><ele>746.5</ele><time>2026-04-25T12:33:53Z</time></trkpt><trkpt lat="43.37619733338023" lon="12.603165486776199"><ele>749.25</ele><time>2026-04-25T12:33:54Z</time></trkpt><trkpt lat="43.376119303785266" lon="12.60325137171414"><ele>752.0</ele><time>2026-04-25T12:33:55Z</time></trkpt><trkpt lat="43.376064479897416" lon="12.603366616472199"><ele>752.0</ele><time>2026-04-25T12:33:56Z</time></trkpt><trkpt lat="43.37604838114025" lon="12.603511035460848"><ele>752.0</ele><time>2026-04-25T12:33:57Z</time></trkpt><trkpt lat="43.37608278118354" lon="12.603668709789229"><ele>752.0</ele><time>2026-04-25T12:33:58Z</time></trkpt><trkpt lat="43.37616903987572" lon="12.603781663904636"><ele>752.0</ele><time>2026-04-25T12:33:59Z</time></trkpt><trkpt lat="43.37630027685518" lon="12.603835066258686"><ele>752.6666666666666</ele><time>2026-04-25T12:34:00Z</time></trkpt><trkpt lat="43.37645444052977" lon="12.603807404186938"><ele>753.3333333333334</ele><time>2026-04-25T12:34:01Z</time></trkpt><trkpt lat="43.37663726814954" lon="12.603696122595132"><ele>754.0</ele><time>2026-04-25T12:34:02Z</time></trkpt><trkpt lat="43.37682337136147" lon="12.603641060093638"><ele>754.0</ele><time>2026-04-25T12:34:03Z</time></trkpt><trkpt lat="43.376976535495814" lon="12.603602280490843"><ele>754.0</ele><time>2026-04-25T12:34:04Z</time></trkpt><trkpt lat="43.377109545561495" lon="12.603596931336334"><ele>754.0</ele><time>2026-04-25T12:34:05Z</time></trkpt><trkpt lat="43.37726188063237" lon="12.603675344146598"><ele>762.0</ele><time>2026-04-25T12:34:06Z</time></trkpt><trkpt lat="43.37741918578965" lon="12.603798275875482"><ele>770.0</ele><time>2026-04-25T12:34:07Z</time></trkpt><trkpt lat="43.37757721507299" lon="12.60387123487129"><ele>778.0</ele><time>2026-04-25T12:34:08Z</time></trkpt><trkpt lat="43.377757512297215" lon="12.603880706772303"><ele>778.0</ele><time>2026-04-25T12:34:09Z</time></trkpt><trkpt lat="43.37793050288431" lon="12.603871632046769"><ele>778.0</ele><time>2026-04-25T12:34:10Z</time></trkpt><trkpt lat="43.37806292978253" lon="12.603855429024314"><ele>778.0</ele><time>2026-04-25T12:34:11Z</time></trkpt><trkpt lat="43.37817787200432" lon="12.603859158565971"><ele>778.0</ele><time>2026-04-25T12:34:12Z</time></trkpt><trkpt lat="43.37827008556159" lon="12.603856254626558"><ele>777.9999999999999</ele><time>2026-04-25T12:34:13Z</time></trkpt><trkpt lat="43.37837862905626" lon="12.603879031789468"><ele>778.0</ele><time>2026-04-25T12:34:15Z</time></trkpt><trkpt lat="43.37844774716255" lon="12.60389902442537"><ele>778.0</ele><time>2026-04-25T12:34:18Z</time></trkpt><trkpt lat="43.378414273483884" lon="12.603905747464616"><ele>778.0</ele><time>2026-04-25T12:35:56Z</time></trkpt><trkpt lat="43.378342042889024" lon="12.60390088271904"><ele>777.9999999999999</ele><time>2026-04-25T12:35:57Z</time></trkpt><trkpt lat="43.37822295142545" lon="12.603888457640087"><ele>778.0</ele><time>2026-04-25T12:35:58Z</time></trkpt><trkpt lat="43.37797838498312" lon="12.603834691823865"><ele>778.0</ele><time>2026-04-25T12:35:59Z</time></trkpt><trkpt lat="43.377802189959574" lon="12.603831030253817"><ele>778.0</ele><time>2026-04-25T12:36:00Z</time></trkpt><trkpt lat="43.37765878635038" lon="12.60382786209764"><ele>778.0</ele><time>2026-04-25T12:36:01Z</time></trkpt><trkpt lat="43.37752011622805" lon="12.603811252099696"><ele>778.0</ele><time>2026-04-25T12:36:02Z</time></trkpt><trkpt lat="43.37738081391198" lon="12.603757663445485"><ele>778.0</ele><time>2026-04-25T12:36:03Z</time></trkpt><trkpt lat="43.37721501163799" lon="12.603655375858082"><ele>778.0</ele><time>2026-04-25T12:36:04Z</time></trkpt><trkpt lat="43.377069259006085" lon="12.603608839249931"><ele>777.0</ele><time>2026-04-25T12:36:05Z</time></trkpt><trkpt lat="43.376962153465904" lon="12.603578047968988"><ele>776.0</ele><time>2026-04-25T12:36:06Z</time></trkpt><trkpt lat="43.37682007252666" lon="12.603633801091034"><ele>775.0</ele><time>2026-04-25T12:36:07Z</time></trkpt><trkpt lat="43.376607549291755" lon="12.603666946783498"><ele>775.0</ele><time>2026-04-25T12:36:08Z</time></trkpt><trkpt lat="43.37643985936728" lon="12.603708185247005"><ele>775.0</ele><time>2026-04-25T12:36:09Z</time></trkpt><trkpt lat="43.37630925338839" lon="12.60374016982003"><ele>775.0</ele><time>2026-04-25T12:36:10Z</time></trkpt><trkpt lat="43.37622343982953" lon="12.60372939479182"><ele>775.0</ele><time>2026-04-25T12:36:11Z</time></trkpt><trkpt lat="43.37612700324929" lon="12.603624241421617"><ele>770.4</ele><time>2026-04-25T12:36:13Z</time></trkpt><trkpt lat="43.37607390899297" lon="12.603550155922635"><ele>765.8</ele><time>2026-04-25T12:36:14Z</time></trkpt><trkpt lat="43.37609851517822" lon="12.60345514459215"><ele>761.2</ele><time>2026-04-25T12:36:15Z</time></trkpt><trkpt lat="43.376108742425764" lon="12.60333510125876"><ele>756.6</ele><time>2026-04-25T12:36:16Z</time></trkpt><trkpt lat="43.37618542161227" lon="12.603231467251097"><ele>752.0</ele><time>2026-04-25T12:36:17Z</time></trkpt><trkpt lat="43.376324009901616" lon="12.603135096003253"><ele>752.6666666666666</ele><time>2026-04-25T12:36:18Z</time></trkpt><trkpt lat="43.376497815182574" lon="12.603036260202026"><ele>753.3333333333334</ele><time>2026-04-25T12:36:19Z</time></trkpt><trkpt lat="43.37663537003476" lon="12.602959695277331"><ele>754.0</ele><time>2026-04-25T12:36:20Z</time></trkpt><trkpt lat="43.376746492260075" lon="12.602889911314234"><ele>751.4000000000001</ele><time>2026-04-25T12:36:21Z</time></trkpt><trkpt lat="43.37682935060159" lon="12.602827888037465"><ele>748.8</ele><time>2026-04-25T12:36:22Z</time></trkpt><trkpt lat="43.37689571791204" lon="12.60270479205499"><ele>746.2</ele><time>2026-04-25T12:36:23Z</time></trkpt><trkpt lat="43.376879860574874" lon="12.602533754157438"><ele>743.5999999999999</ele><time>2026-04-25T12:36:24Z</time></trkpt><trkpt lat="43.376833549145275" lon="12.602387829895468"><ele>741.0</ele><time>2026-04-25T12:36:25Z</time></trkpt><trkpt lat="43.376729770306326" lon="12.602288505443878"><ele>741.0</ele><time>2026-04-25T12:36:26Z</time></trkpt><trkpt lat="43.376591164367156" lon="12.602265396749816"><ele>741.0</ele><time>2026-04-25T12:36:27Z</time></trkpt><trkpt lat="43.37642226579153" lon="12.602339549618625"><ele>741.0</ele><time>2026-04-25T12:36:28Z</time></trkpt><trkpt lat="43.376266820625425" lon="12.602394956899277"><ele>740.8</ele><time>2026-04-25T12:36:29Z</time></trkpt><trkpt lat="43.376141979723926" lon="12.602421456659341"><ele>740.5999999999999</ele><time>2026-04-25T12:36:30Z</time></trkpt><trkpt lat="43.37605167248754" lon="12.602455308490041"><ele>740.4</ele><time>2026-04-25T12:36:31Z</time></trkpt><trkpt lat="43.37598505030723" lon="12.602408612709784"><ele>740.2</ele><time>2026-04-25T12:36:32Z</time></trkpt><trkpt lat="43.37593942252159" lon="12.60231677667943"><ele>740.0</ele><time>2026-04-25T12:36:33Z</time></trkpt><trkpt lat="43.37593197328175" lon="12.602195344458211"><ele>740.0</ele><time>2026-04-25T12:36:34Z</time></trkpt><trkpt lat="43.37597915776016" lon="12.602081555384121"><ele>740.0</ele><time>2026-04-25T12:36:35Z</time></trkpt><trkpt lat="43.376065772611426" lon="12.601966504770127"><ele>740.0</ele><time>2026-04-25T12:36:36Z</time></trkpt><trkpt lat="43.37612410500933" lon="12.601805687567571"><ele>740.0</ele><time>2026-04-25T12:36:37Z</time></trkpt><trkpt lat="43.37614625093314" lon="12.601622915794136"><ele>737.0</ele><time>2026-04-25T12:36:38Z</time></trkpt><trkpt lat="43.376103744781126" lon="12.601402405324318"><ele>734.0</ele><time>2026-04-25T12:36:39Z</time></trkpt><trkpt lat="43.37602500000779" lon="12.601175714514529"><ele>731.0</ele><time>2026-04-25T12:36:40Z</time></trkpt><trkpt lat="43.37592164047864" lon="12.600910518850128"><ele>728.0</ele><time>2026-04-25T12:36:41Z</time></trkpt><trkpt lat="43.37577155464648" lon="12.600643383556562"><ele>725.0</ele><time>2026-04-25T12:36:42Z</time></trkpt><trkpt lat="43.37558303715537" lon="12.600406574673341"><ele>720.5</ele><time>2026-04-25T12:36:43Z</time></trkpt><trkpt lat="43.375386299826374" lon="12.60017832069392"><ele>716.0</ele><time>2026-04-25T12:36:44Z</time></trkpt><trkpt lat="43.375214637793064" lon="12.599961691248446"><ele>716.0</ele><time>2026-04-25T12:36:45Z</time></trkpt><trkpt lat="43.37507777244653" lon="12.599726672189094"><ele>716.0</ele><time>2026-04-25T12:36:46Z</time></trkpt><trkpt lat="43.37495887355885" lon="12.59944654791587"><ele>718.5</ele><time>2026-04-25T12:36:47Z</time></trkpt><trkpt lat="43.37480271203228" lon="12.599194307190864"><ele>721.0</ele><time>2026-04-25T12:36:48Z</time></trkpt><trkpt lat="43.37463445852531" lon="12.598953894005282"><ele>713.5</ele><time>2026-04-25T12:36:49Z</time></trkpt><trkpt lat="43.37446898292204" lon="12.598687284138512"><ele>706.0</ele><time>2026-04-25T12:36:50Z</time></trkpt><trkpt lat="43.374335089808774" lon="12.598373020280182"><ele>705.5</ele><time>2026-04-25T12:36:51Z</time></trkpt><trkpt lat="43.37420111866346" lon="12.598019882685119"><ele>705.0</ele><time>2026-04-25T12:36:52Z</time></trkpt><trkpt lat="43.37405749612315" lon="12.597654966679155"><ele>705.0</ele><time>2026-04-25T12:36:53Z</time></trkpt><trkpt lat="43.37390150178481" lon="12.597297325477182"><ele>705.0</ele><time>2026-04-25T12:36:54Z</time></trkpt><trkpt lat="43.37372251329496" lon="12.596945121139536"><ele>699.5</ele><time>2026-04-25T12:36:55Z</time></trkpt><trkpt lat="43.37355477750586" lon="12.596621754917448"><ele>694.0</ele><time>2026-04-25T12:36:56Z</time></trkpt><trkpt lat="43.37340320339554" lon="12.596329123974304"><ele>696.3333333333334</ele><time>2026-04-25T12:36:57Z</time></trkpt><trkpt lat="43.3732730670616" lon="12.596077721007827"><ele>698.6666666666666</ele><time>2026-04-25T12:36:58Z</time></trkpt><trkpt lat="43.37315167373171" lon="12.595851577418333"><ele>701.0</ele><time>2026-04-25T12:36:59Z</time></trkpt><trkpt lat="43.37302509680654" lon="12.595628584508598"><ele>696.3333333333333</ele><time>2026-04-25T12:37:00Z</time></trkpt><trkpt lat="43.37290916000881" lon="12.595424339015986"><ele>691.6666666666666</ele><time>2026-04-25T12:37:01Z</time></trkpt><trkpt lat="43.372817266281324" lon="12.595262450118964"><ele>687.0</ele><time>2026-04-25T12:37:02Z</time></trkpt><trkpt lat="43.37261744781331" lon="12.595186416268549"><ele>685.3333333333334</ele><time>2026-04-25T12:37:03Z</time></trkpt><trkpt lat="43.372541260639466" lon="12.594928302753885"><ele>683.6666666666667</ele><time>2026-04-25T12:37:04Z</time></trkpt><trkpt lat="43.37246567001489" lon="12.59468006776774"><ele>682.0</ele><time>2026-04-25T12:37:05Z</time></trkpt><trkpt lat="43.372371194878596" lon="12.594510104562314"><ele>681.0</ele><time>2026-04-25T12:37:06Z</time></trkpt><trkpt lat="43.372293855820956" lon="12.594335022900106"><ele>680.0</ele><time>2026-04-25T12:37:07Z</time></trkpt><trkpt lat="43.37228719016274" lon="12.594113021618522"><ele>679.0</ele><time>2026-04-25T12:37:08Z</time></trkpt><trkpt lat="43.3723300812594" lon="12.593867672134824"><ele>679.0</ele><time>2026-04-25T12:37:09Z</time></trkpt><trkpt lat="43.37237859361074" lon="12.593629103079687"><ele>679.0</ele><time>2026-04-25T12:37:10Z</time></trkpt><trkpt lat="43.37240081523209" lon="12.59344174311398"><ele>679.0</ele><time>2026-04-25T12:37:11Z</time></trkpt><trkpt lat="43.37238388881114" lon="12.593251238946584"><ele>679.0</ele><time>2026-04-25T12:37:12Z</time></trkpt><trkpt lat="43.37229273392024" lon="12.593041889034263"><ele>679.0</ele><time>2026-04-25T12:37:13Z</time></trkpt><trkpt lat="43.37215620371923" lon="12.592857950731725"><ele>679.0</ele><time>2026-04-25T12:37:14Z</time></trkpt><trkpt lat="43.372033794446146" lon="12.592733967637342"><ele>671.25</ele><time>2026-04-25T12:37:15Z</time></trkpt><trkpt lat="43.37197116047632" lon="12.592597596354146"><ele>663.5</ele><time>2026-04-25T12:37:16Z</time></trkpt><trkpt lat="43.37196751320644" lon="12.592419862040956"><ele>655.75</ele><time>2026-04-25T12:37:17Z</time></trkpt><trkpt lat="43.3720206059549" lon="12.59219845226468"><ele>648.0</ele><time>2026-04-25T12:37:18Z</time></trkpt><trkpt lat="43.37208111791699" lon="12.591938761326519"><ele>647.3333333333334</ele><time>2026-04-25T12:37:19Z</time></trkpt><trkpt lat="43.37210902755445" lon="12.59162933035651"><ele>646.6666666666667</ele><time>2026-04-25T12:37:20Z</time></trkpt><trkpt lat="43.37208098575826" lon="12.59134604530321"><ele>646.0</ele><time>2026-04-25T12:37:21Z</time></trkpt><trkpt lat="43.37210554671686" lon="12.591083765533016"><ele>645.75</ele><time>2026-04-25T12:37:22Z</time></trkpt><trkpt lat="43.37216876205126" lon="12.590854277487713"><ele>645.5</ele><time>2026-04-25T12:37:23Z</time></trkpt><trkpt lat="43.37222172681968" lon="12.590690132754618"><ele>645.25</ele><time>2026-04-25T12:37:24Z</time></trkpt><trkpt lat="43.37227513146879" lon="12.59058594567468"><ele>645.0</ele><time>2026-04-25T12:37:25Z</time></trkpt><trkpt lat="43.37238358225864" lon="12.59056119650369"><ele>645.0</ele><time>2026-04-25T12:37:26Z</time></trkpt><trkpt lat="43.37249391387837" lon="12.590547294940109"><ele>645.0</ele><time>2026-04-25T12:37:27Z</time></trkpt><trkpt lat="43.372653163662996" lon="12.590598029256522"><ele>645.0</ele><time>2026-04-25T12:37:28Z</time></trkpt><trkpt lat="43.37282268325657" lon="12.590660629984951"><ele>645.0</ele><time>2026-04-25T12:37:29Z</time></trkpt><trkpt lat="43.37293184856626" lon="12.590695457343292"><ele>645.0</ele><time>2026-04-25T12:37:30Z</time></trkpt><trkpt lat="43.37301836895648" lon="12.590712993545734"><ele>645.0</ele><time>2026-04-25T12:37:31Z</time></trkpt><trkpt lat="43.37311072462465" lon="12.590688898032665"><ele>645.0</ele><time>2026-04-25T12:37:32Z</time></trkpt><trkpt lat="43.373193105852025" lon="12.590590784696905"><ele>645.0</ele><time>2026-04-25T12:37:33Z</time></trkpt><trkpt lat="43.373209428689464" lon="12.590434532962009"><ele>642.25</ele><time>2026-04-25T12:37:34Z</time></trkpt><trkpt lat="43.37314818810945" lon="12.590269002546465"><ele>639.5</ele><time>2026-04-25T12:37:35Z</time></trkpt><trkpt lat="43.37304416542369" lon="12.59016158932671"><ele>636.75</ele><time>2026-04-25T12:37:36Z</time></trkpt><trkpt lat="43.37290727882696" lon="12.590150663108075"><ele>634.0</ele><time>2026-04-25T12:37:37Z</time></trkpt><trkpt lat="43.37274495806286" lon="12.590186541295386"><ele>633.6666666666667</ele><time>2026-04-25T12:37:38Z</time></trkpt><trkpt lat="43.37255422877792" lon="12.590174402030543"><ele>633.3333333333334</ele><time>2026-04-25T12:37:39Z</time></trkpt><trkpt lat="43.37234960474052" lon="12.590113870956245"><ele>633.0</ele><time>2026-04-25T12:37:40Z</time></trkpt><trkpt lat="43.372156761249464" lon="12.589994604224358"><ele>633.0</ele><time>2026-04-25T12:37:41Z</time></trkpt><trkpt lat="43.37196256275502" lon="12.589823136104464"><ele>633.0</ele><time>2026-04-25T12:37:42Z</time></trkpt><trkpt lat="43.37175256639226" lon="12.589607632192374"><ele>630.6666666666666</ele><time>2026-04-25T12:37:43Z</time></trkpt><trkpt lat="43.37155719946001" lon="12.589426531668371"><ele>628.3333333333333</ele><time>2026-04-25T12:37:44Z</time></trkpt><trkpt lat="43.371414988294205" lon="12.589287128279082"><ele>626.0</ele><time>2026-04-25T12:37:45Z</time></trkpt><trkpt lat="43.37128132914971" lon="12.58919240977024"><ele>626.0</ele><time>2026-04-25T12:37:46Z</time></trkpt><trkpt lat="43.37113285433134" lon="12.589131596430903"><ele>626.0</ele><time>2026-04-25T12:37:47Z</time></trkpt><trkpt lat="43.37095787574636" lon="12.589126814271289"><ele>626.0</ele><time>2026-04-25T12:37:48Z</time></trkpt><trkpt lat="43.370795164618436" lon="12.589191071923327"><ele>626.0</ele><time>2026-04-25T12:37:49Z</time></trkpt><trkpt lat="43.37062390847404" lon="12.589191164378887"><ele>626.0</ele><time>2026-04-25T12:37:50Z</time></trkpt><trkpt lat="43.37043685298655" lon="12.589121508168715"><ele>626.0</ele><time>2026-04-25T12:37:51Z</time></trkpt><trkpt lat="43.37025656977741" lon="12.589007992250293"><ele>622.6666666666666</ele><time>2026-04-25T12:37:52Z</time></trkpt><trkpt lat="43.37009559734699" lon="12.58887123580276"><ele>619.3333333333334</ele><time>2026-04-25T12:37:53Z</time></trkpt><trkpt lat="43.36992977251982" lon="12.58869929079243"><ele>616.0</ele><time>2026-04-25T12:37:54Z</time></trkpt><trkpt lat="43.369783248861864" lon="12.588491088703645"><ele>616.0</ele><time>2026-04-25T12:37:55Z</time></trkpt><trkpt lat="43.36969662760527" lon="12.588302438342172"><ele>616.0</ele><time>2026-04-25T12:37:56Z</time></trkpt><trkpt lat="43.369602506387054" lon="12.588160226418324"><ele>616.0</ele><time>2026-04-25T12:37:57Z</time></trkpt><trkpt lat="43.36945555965961" lon="12.588081774241152"><ele>616.3333333333334</ele><time>2026-04-25T12:37:58Z</time></trkpt><trkpt lat="43.3692661233195" lon="12.58806154708841"><ele>616.6666666666666</ele><time>2026-04-25T12:37:59Z</time></trkpt><trkpt lat="43.369039792110875" lon="12.588109755932589"><ele>617.0</ele><time>2026-04-25T12:38:00Z</time></trkpt><trkpt lat="43.368860308103905" lon="12.588127293841278"><ele>615.0</ele><time>2026-04-25T12:38:01Z</time></trkpt><trkpt lat="43.368689067483295" lon="12.58810454186386"><ele>613.0</ele><time>2026-04-25T12:38:02Z</time></trkpt><trkpt lat="43.36851193697003" lon="12.5880043969798"><ele>611.0</ele><time>2026-04-25T12:38:03Z</time></trkpt><trkpt lat="43.368328286353346" lon="12.587840643299913"><ele>611.0</ele><time>2026-04-25T12:38:04Z</time></trkpt><trkpt lat="43.36813629365509" lon="12.587659036657113"><ele>611.0</ele><time>2026-04-25T12:38:05Z</time></trkpt><trkpt lat="43.36798312038574" lon="12.587517261353309"><ele>611.0</ele><time>2026-04-25T12:38:06Z</time></trkpt><trkpt lat="43.36786224777386" lon="12.587409358928698"><ele>612.0</ele><time>2026-04-25T12:38:07Z</time></trkpt><trkpt lat="43.36779659832803" lon="12.58726307587332"><ele>613.0</ele><time>2026-04-25T12:38:08Z</time></trkpt><trkpt lat="43.36774842868491" lon="12.587054051267058"><ele>614.0</ele><time>2026-04-25T12:38:09Z</time></trkpt><trkpt lat="43.36773478562783" lon="12.586827787217164"><ele>615.0</ele><time>2026-04-25T12:38:10Z</time></trkpt><trkpt lat="43.36776645706217" lon="12.586593784859934"><ele>615.0</ele><time>2026-04-25T12:38:11Z</time></trkpt><trkpt lat="43.36784268914964" lon="12.58637686600691"><ele>615.0</ele><time>2026-04-25T12:38:12Z</time></trkpt><trkpt lat="43.36795299073227" lon="12.586146998881171"><ele>615.0</ele><time>2026-04-25T12:38:13Z</time></trkpt><trkpt lat="43.36803806709759" lon="12.58588308574309"><ele>617.6666666666666</ele><time>2026-04-25T12:38:14Z</time></trkpt><trkpt lat="43.36810366612809" lon="12.585611260777641"><ele>620.3333333333333</ele><time>2026-04-25T12:38:15Z</time></trkpt><trkpt lat="43.368142305907384" lon="12.585321191889943"><ele>623.0</ele><time>2026-04-25T12:38:16Z</time></trkpt><trkpt lat="43.36816696654553" lon="12.585071337765685"><ele>623.0</ele><time>2026-04-25T12:38:17Z</time></trkpt><trkpt lat="43.36817295844737" lon="12.584834875787747"><ele>623.0</ele><time>2026-04-25T12:38:18Z</time></trkpt><trkpt lat="43.368119785519106" lon="12.584578781262227"><ele>623.0</ele><time>2026-04-25T12:38:19Z</time></trkpt><trkpt lat="43.36801458380179" lon="12.5842840517986"><ele>617.0</ele><time>2026-04-25T12:38:20Z</time></trkpt><trkpt lat="43.36791107474973" lon="12.584010119234403"><ele>611.0</ele><time>2026-04-25T12:38:21Z</time></trkpt><trkpt lat="43.3678398819075" lon="12.583793089208335"><ele>605.0</ele><time>2026-04-25T12:38:22Z</time></trkpt><trkpt lat="43.367766178284484" lon="12.583640720682382"><ele>603.3333333333333</ele><time>2026-04-25T12:38:23Z</time></trkpt><trkpt lat="43.36763368595116" lon="12.583504745978875"><ele>601.6666666666666</ele><time>2026-04-25T12:38:24Z</time></trkpt><trkpt lat="43.3674323876634" lon="12.58340292110564"><ele>600.0</ele><time>2026-04-25T12:38:25Z</time></trkpt><trkpt lat="43.367194462843464" lon="12.583335859700433"><ele>601.0</ele><time>2026-04-25T12:38:26Z</time></trkpt><trkpt lat="43.366974521504254" lon="12.583294056494"><ele>602.0</ele><time>2026-04-25T12:38:27Z</time></trkpt><trkpt lat="43.36677729949437" lon="12.58325906810463"><ele>603.0</ele><time>2026-04-25T12:38:28Z</time></trkpt><trkpt lat="43.36659527181767" lon="12.583248408658665"><ele>603.0</ele><time>2026-04-25T12:38:29Z</time></trkpt><trkpt lat="43.366422346257856" lon="12.583196585159522"><ele>603.0</ele><time>2026-04-25T12:38:30Z</time></trkpt><trkpt lat="43.36625092563038" lon="12.583081681410544"><ele>603.0</ele><time>2026-04-25T12:38:31Z</time></trkpt><trkpt lat="43.36610170142431" lon="12.58289099111321"><ele>598.0</ele><time>2026-04-25T12:38:32Z</time></trkpt><trkpt lat="43.36596215956932" lon="12.582692269882667"><ele>593.0</ele><time>2026-04-25T12:38:33Z</time></trkpt><trkpt lat="43.36582228480584" lon="12.582570159111198"><ele>588.0</ele><time>2026-04-25T12:38:34Z</time></trkpt><trkpt lat="43.36563665706998" lon="12.582518674966169"><ele>585.3333333333334</ele><time>2026-04-25T12:38:35Z</time></trkpt><trkpt lat="43.36546717135925" lon="12.582501748881743"><ele>582.6666666666667</ele><time>2026-04-25T12:38:36Z</time></trkpt><trkpt lat="43.365285541256895" lon="12.582568716706293"><ele>580.0</ele><time>2026-04-25T12:38:37Z</time></trkpt><trkpt lat="43.36509110361845" lon="12.582710516783086"><ele>580.0</ele><time>2026-04-25T12:38:38Z</time></trkpt><trkpt lat="43.364907737838756" lon="12.582844754393829"><ele>580.0</ele><time>2026-04-25T12:38:39Z</time></trkpt><trkpt lat="43.364755380339254" lon="12.58293540872104"><ele>580.0</ele><time>2026-04-25T12:38:40Z</time></trkpt><trkpt lat="43.36458878749039" lon="12.582953225112451"><ele>581.0</ele><time>2026-04-25T12:38:41Z</time></trkpt><trkpt lat="43.36439230686981" lon="12.582908256846872"><ele>582.0</ele><time>2026-04-25T12:38:42Z</time></trkpt><trkpt lat="43.36421592294417" lon="12.582849859135745"><ele>583.0</ele><time>2026-04-25T12:38:43Z</time></trkpt><trkpt lat="43.36406364714556" lon="12.582831998093699"><ele>583.0</ele><time>2026-04-25T12:38:44Z</time></trkpt><trkpt lat="43.363907264589656" lon="12.582885060190621"><ele>583.0</ele><time>2026-04-25T12:38:45Z</time></trkpt><trkpt lat="43.36375394480511" lon="12.583027346531022"><ele>583.0</ele><time>2026-04-25T12:38:46Z</time></trkpt><trkpt lat="43.363636927483896" lon="12.583194600967598"><ele>580.0</ele><time>2026-04-25T12:38:47Z</time></trkpt><trkpt lat="43.363515915112885" lon="12.58329810359541"><ele>577.0</ele><time>2026-04-25T12:38:48Z</time></trkpt><trkpt lat="43.363368779940515" lon="12.583323625031019"><ele>574.0</ele><time>2026-04-25T12:38:49Z</time></trkpt><trkpt lat="43.363199791620104" lon="12.58325516509409"><ele>579.0</ele><time>2026-04-25T12:38:50Z</time></trkpt><trkpt lat="43.36301364922037" lon="12.583104038774884"><ele>584.0</ele><time>2026-04-25T12:38:51Z</time></trkpt><trkpt lat="43.36283346679986" lon="12.58296556415796"><ele>589.0</ele><time>2026-04-25T12:38:52Z</time></trkpt><trkpt lat="43.36267524897178" lon="12.582864644833439"><ele>586.25</ele><time>2026-04-25T12:38:53Z</time></trkpt><trkpt lat="43.36253054853472" lon="12.582793766001727"><ele>583.5</ele><time>2026-04-25T12:38:54Z</time></trkpt><trkpt lat="43.36240601326391" lon="12.582707653441147"><ele>580.75</ele><time>2026-04-25T12:38:55Z</time></trkpt><trkpt lat="43.36227037972988" lon="12.582601667158084"><ele>578.0</ele><time>2026-04-25T12:38:56Z</time></trkpt><trkpt lat="43.36210100141936" lon="12.58242258552595"><ele>578.0</ele><time>2026-04-25T12:38:57Z</time></trkpt><trkpt lat="43.36191346637489" lon="12.582191122299498"><ele>578.0</ele><time>2026-04-25T12:38:58Z</time></trkpt><trkpt lat="43.361713063511054" lon="12.581955510889573"><ele>575.0</ele><time>2026-04-25T12:38:59Z</time></trkpt><trkpt lat="43.361503792018546" lon="12.58177088657428"><ele>572.0</ele><time>2026-04-25T12:39:00Z</time></trkpt><trkpt lat="43.361288790617316" lon="12.581603882883163"><ele>572.0</ele><time>2026-04-25T12:39:01Z</time></trkpt><trkpt lat="43.36105664476795" lon="12.58144144450286"><ele>572.0</ele><time>2026-04-25T12:39:02Z</time></trkpt><trkpt lat="43.36083255156993" lon="12.581266568707717"><ele>572.3333333333333</ele><time>2026-04-25T12:39:03Z</time></trkpt><trkpt lat="43.36066786988751" lon="12.58111957685249"><ele>572.6666666666666</ele><time>2026-04-25T12:39:04Z</time></trkpt><trkpt lat="43.36052743812978" lon="12.580980338537579"><ele>573.0</ele><time>2026-04-25T12:39:05Z</time></trkpt><trkpt lat="43.36042565168406" lon="12.58076631749895"><ele>573.0</ele><time>2026-04-25T12:39:06Z</time></trkpt><trkpt lat="43.36033566927989" lon="12.580518939310469"><ele>573.0</ele><time>2026-04-25T12:39:07Z</time></trkpt><trkpt lat="43.36023018000348" lon="12.58031704092131"><ele>573.0</ele><time>2026-04-25T12:39:08Z</time></trkpt><trkpt lat="43.36007759138197" lon="12.580170548177646"><ele>577.6666666666666</ele><time>2026-04-25T12:39:09Z</time></trkpt><trkpt lat="43.35990023333914" lon="12.580008683149243"><ele>582.3333333333333</ele><time>2026-04-25T12:39:10Z</time></trkpt><trkpt lat="43.35972194305159" lon="12.57991034559611"><ele>587.0</ele><time>2026-04-25T12:39:11Z</time></trkpt><trkpt lat="43.359565786835695" lon="12.57982318319015"><ele>587.0</ele><time>2026-04-25T12:39:12Z</time></trkpt><trkpt lat="43.35942016360645" lon="12.579736532672875"><ele>587.0</ele><time>2026-04-25T12:39:13Z</time></trkpt><trkpt lat="43.35928480623895" lon="12.57963347472518"><ele>587.0</ele><time>2026-04-25T12:39:14Z</time></trkpt><trkpt lat="43.35918727826118" lon="12.579499849234681"><ele>569.0</ele><time>2026-04-25T12:39:15Z</time></trkpt><trkpt lat="43.35909710152894" lon="12.579312115576291"><ele>551.0</ele><time>2026-04-25T12:39:16Z</time></trkpt><trkpt lat="43.359016567272256" lon="12.579098033717589"><ele>533.0</ele><time>2026-04-25T12:39:17Z</time></trkpt><trkpt lat="43.35894031647953" lon="12.578901601859421"><ele>533.0</ele><time>2026-04-25T12:39:18Z</time></trkpt><trkpt lat="43.358868477437575" lon="12.57872189531957"><ele>533.0</ele><time>2026-04-25T12:39:19Z</time></trkpt><trkpt lat="43.35880043461775" lon="12.578564401958758"><ele>533.0</ele><time>2026-04-25T12:39:20Z</time></trkpt><trkpt lat="43.35872272883081" lon="12.578400293361364"><ele>533.0</ele><time>2026-04-25T12:39:21Z</time></trkpt><trkpt lat="43.35861533659286" lon="12.57818209815125"><ele>530.5</ele><time>2026-04-25T12:39:22Z</time></trkpt><trkpt lat="43.35847354120867" lon="12.577906828896486"><ele>528.0</ele><time>2026-04-25T12:39:23Z</time></trkpt><trkpt lat="43.35832389120301" lon="12.57761214762182"><ele>528.0</ele><time>2026-04-25T12:39:24Z</time></trkpt><trkpt lat="43.35818161513671" lon="12.577327060854174"><ele>528.0</ele><time>2026-04-25T12:39:25Z</time></trkpt><trkpt lat="43.35805871641791" lon="12.577080208846017"><ele>526.3333333333334</ele><time>2026-04-25T12:39:26Z</time></trkpt><trkpt lat="43.357958464069554" lon="12.576871606187074"><ele>524.6666666666667</ele><time>2026-04-25T12:39:27Z</time></trkpt><trkpt lat="43.35784565248645" lon="12.576700488081158"><ele>523.0</ele><time>2026-04-25T12:39:28Z</time></trkpt><trkpt lat="43.35768863927233" lon="12.57655247312857"><ele>523.0</ele><time>2026-04-25T12:39:29Z</time></trkpt><trkpt lat="43.357506363195434" lon="12.576447926123679"><ele>523.0</ele><time>2026-04-25T12:39:30Z</time></trkpt><trkpt lat="43.35735103150286" lon="12.576358863867803"><ele>523.0</ele><time>2026-04-25T12:39:31Z</time></trkpt><trkpt lat="43.35722196238333" lon="12.576285782733292"><ele>523.0</ele><time>2026-04-25T12:39:32Z</time></trkpt><trkpt lat="43.357098151438045" lon="12.576282982906411"><ele>523.0</ele><time>2026-04-25T12:39:33Z</time></trkpt><trkpt lat="43.35699064416562" lon="12.576224303991593"><ele>523.0</ele><time>2026-04-25T12:39:34Z</time></trkpt><trkpt lat="43.35689246962102" lon="12.576174088392321"><ele>523.0</ele><time>2026-04-25T12:39:35Z</time></trkpt><trkpt lat="43.356800451087864" lon="12.576136558185194"><ele>523.0</ele><time>2026-04-25T12:39:36Z</time></trkpt><trkpt lat="43.356730461431" lon="12.576034897936884"><ele>522.4</ele><time>2026-04-25T12:39:37Z</time></trkpt><trkpt lat="43.356670752365574" lon="12.57598170971312"><ele>521.8</ele><time>2026-04-25T12:39:38Z</time></trkpt><trkpt lat="43.356627538214845" lon="12.575896943139737"><ele>521.2</ele><time>2026-04-25T12:39:39Z</time></trkpt><trkpt lat="43.35659112600984" lon="12.575740844643791"><ele>520.6</ele><time>2026-04-25T12:39:40Z</time></trkpt><trkpt lat="43.35654151979377" lon="12.575519529183843"><ele>520.0</ele><time>2026-04-25T12:39:41Z</time></trkpt><trkpt lat="43.35650475741202" lon="12.575341251637836"><ele>521.2</ele><time>2026-04-25T12:39:42Z</time></trkpt><trkpt lat="43.35646508918931" lon="12.575180552081079"><ele>522.4</ele><time>2026-04-25T12:39:43Z</time></trkpt><trkpt lat="43.35642185974988" lon="12.575038767777393"><ele>523.6</ele><time>2026-04-25T12:39:44Z</time></trkpt><trkpt lat="43.356378819773326" lon="12.574913821125682"><ele>524.8</ele><time>2026-04-25T12:39:45Z</time></trkpt><trkpt lat="43.356336115585854" lon="12.574801625236804"><ele>526.0</ele><time>2026-04-25T12:39:46Z</time></trkpt><trkpt lat="43.356281632406805" lon="12.574716973658646"><ele>512.0</ele><time>2026-04-25T12:39:47Z</time></trkpt><trkpt lat="43.356250866098705" lon="12.574632321721637"><ele>512.0</ele><time>2026-04-25T12:39:48Z</time></trkpt><trkpt lat="43.35621052052931" lon="12.574504772204973"><ele>509.0</ele><time>2026-04-25T12:39:50Z</time></trkpt><trkpt lat="43.35617790429808" lon="12.574425293683221"><ele>509.0</ele><time>2026-04-25T12:39:53Z</time></trkpt></trkseg></trk></gpx>